Darstellungsparameter: Aktuell verwendete Einstellungen:
Skalierung der Graphiken ... ?
xyx+y,   Skalierungsfaktor:      Skalierung: Modus: x, Faktor: 1
Darstellungszeitraum ... ?
Vom - - bis: - -   Zeitraum: 09.01.2022 - 15.01.2022
Min/Max/Avg-Anzeige ... ?
Zeige MMA aktuell
Zeige MMA Monat
Zeige MMA alles
Zeige --A aktuell
Zeige --A Monat
Zeige --A alles
Keine MMA-Anzeige
MMA:
Keine MMA-Graphiken
MMA-Basis: 09.01.2022 - 15.01.2022
Quicknavigation für Darstellung... ?
Tage:      1T, 2T, 3T, 5T -1T -2T -3T -5T +1T +2T +3T +5T
Wochen: 1W, 2W, 3W -1W -2W -3W +1W +2W +3W
Monate: 1M, 3M, 6M -1M -3M -6M +1M +3M +6M
Jahre:    1J, 3J, 5J, 10J -1J -3J -5J -10J +1J +3J +5J +10J
Nutze für die Darstellung ... ?
Originaldaten oder Mittelwerte auf ...
Stundenbasis Tagesbasis Wochenbasis
Monatsbasis Jahresbasis      Datenbasis: Original-Daten
Darstellen als:
Statistik (Auto) Statistik J:M      Darstellung:
Zur Graphik,    zurück zur Übersicht aller Sensoren.
 
Tabellarische Datenbersicht: ?
 
Sensor: Nr:Datum:Temp:Feuchte:Taupunkt:
Aussen-T/F 1 09-01-2022 00:00:00 3.5 C 97 % 3.07 C
2 09-01-2022 00:05:00 3.6 C 96 % 3.02 C
3 09-01-2022 00:10:00 3.6 C 96 % 3.02 C
4 09-01-2022 00:15:00 3.5 C 96 % 2.92 C
5 09-01-2022 00:20:00 3.5 C 96 % 2.92 C
6 09-01-2022 00:25:00 3.4 C 96 % 2.82 C
7 09-01-2022 00:30:00 3.4 C 96 % 2.82 C
8 09-01-2022 00:35:00 3.4 C 96 % 2.82 C
9 09-01-2022 00:40:00 3.4 C 96 % 2.82 C
10 09-01-2022 00:45:00 3.4 C 96 % 2.82 C
11 09-01-2022 00:50:00 3.3 C 96 % 2.72 C
12 09-01-2022 00:55:00 3.3 C 96 % 2.72 C
13 09-01-2022 01:00:00 3.3 C 96 % 2.72 C
14 09-01-2022 01:05:00 3.2 C 96 % 2.63 C
15 09-01-2022 01:10:00 3.2 C 96 % 2.63 C
16 09-01-2022 01:15:00 3.2 C 96 % 2.63 C
17 09-01-2022 01:20:00 3.3 C 96 % 2.72 C
18 09-01-2022 01:25:00 3.4 C 96 % 2.82 C
19 09-01-2022 01:30:00 3.4 C 96 % 2.82 C
20 09-01-2022 01:35:00 3.4 C 96 % 2.82 C
21 09-01-2022 01:40:00 3.4 C 96 % 2.82 C
22 09-01-2022 01:45:00 3.4 C 96 % 2.82 C
23 09-01-2022 01:50:00 3.4 C 96 % 2.82 C
24 09-01-2022 01:55:00 3.4 C 96 % 2.82 C
25 09-01-2022 02:00:00 3.4 C 96 % 2.82 C
Sensor: Nr:Datum:Temp:Feuchte:Taupunkt:
Aussen-T/F 26 09-01-2022 02:05:00 3.4 C 96 % 2.82 C
27 09-01-2022 02:10:00 3.3 C 96 % 2.72 C
28 09-01-2022 02:15:00 3.3 C 96 % 2.72 C
29 09-01-2022 02:20:00 3.2 C 96 % 2.63 C
30 09-01-2022 02:25:00 3.2 C 96 % 2.63 C
31 09-01-2022 02:30:00 3.1 C 96 % 2.53 C
32 09-01-2022 02:35:00 2.9 C 96 % 2.33 C
33 09-01-2022 02:40:00 2.9 C 96 % 2.33 C
34 09-01-2022 02:45:00 2.8 C 96 % 2.23 C
35 09-01-2022 02:50:00 2.8 C 96 % 2.23 C
36 09-01-2022 02:55:00 2.8 C 96 % 2.23 C
37 09-01-2022 03:00:00 2.8 C 96 % 2.23 C
38 09-01-2022 03:05:00 2.8 C 96 % 2.23 C
39 09-01-2022 03:10:00 2.8 C 96 % 2.23 C
40 09-01-2022 03:15:00 2.8 C 96 % 2.23 C
41 09-01-2022 03:20:00 2.8 C 96 % 2.23 C
42 09-01-2022 03:25:00 2.9 C 96 % 2.33 C
43 09-01-2022 03:30:00 3 C 96 % 2.43 C
44 09-01-2022 03:35:00 3.2 C 97 % 2.77 C
45 09-01-2022 03:40:00 3.3 C 96 % 2.72 C
46 09-01-2022 03:45:00 3.4 C 96 % 2.82 C
47 09-01-2022 03:50:00 3.5 C 97 % 3.07 C
48 09-01-2022 03:55:00 3.7 C 97 % 3.27 C
49 09-01-2022 04:00:00 3.9 C 97 % 3.47 C
50 09-01-2022 04:05:00 4.1 C 97 % 3.67 C
Sensor: Nr:Datum:Temp:Feuchte:Taupunkt:
Aussen-T/F 51 09-01-2022 04:10:00 4.2 C 97 % 3.77 C
52 09-01-2022 04:15:00 4.2 C 97 % 3.77 C
53 09-01-2022 04:20:00 4.2 C 96 % 3.62 C
54 09-01-2022 04:25:00 4.2 C 96 % 3.62 C
55 09-01-2022 04:30:00 4.2 C 96 % 3.62 C
56 09-01-2022 04:35:00 4.1 C 95 % 3.37 C
57 09-01-2022 04:40:00 4 C 95 % 3.27 C
58 09-01-2022 04:45:00 3.9 C 95 % 3.17 C
59 09-01-2022 04:50:00 3.9 C 95 % 3.17 C
60 09-01-2022 04:55:00 3.9 C 95 % 3.17 C
61 09-01-2022 05:00:00 3.9 C 95 % 3.17 C
62 09-01-2022 05:05:00 3.9 C 95 % 3.17 C
63 09-01-2022 05:10:00 3.9 C 95 % 3.17 C
64 09-01-2022 05:15:00 3.9 C 95 % 3.17 C
65 09-01-2022 05:20:00 3.8 C 95 % 3.07 C
66 09-01-2022 05:25:00 3.8 C 95 % 3.07 C
67 09-01-2022 05:30:00 3.8 C 95 % 3.07 C
68 09-01-2022 05:35:00 3.9 C 95 % 3.17 C
69 09-01-2022 05:40:00 3.9 C 95 % 3.17 C
70 09-01-2022 05:45:00 3.9 C 95 % 3.17 C
71 09-01-2022 05:50:00 3.9 C 95 % 3.17 C
72 09-01-2022 05:55:00 3.9 C 95 % 3.17 C
73 09-01-2022 06:00:00 3.9 C 95 % 3.17 C
74 09-01-2022 06:05:00 3.9 C 95 % 3.17 C
75 09-01-2022 06:10:00 3.9 C 95 % 3.17 C
Sensor: Nr:Datum:Temp:Feuchte:Taupunkt:
Aussen-T/F 76 09-01-2022 06:15:00 3.9 C 95 % 3.17 C
77 09-01-2022 06:20:00 3.9 C 95 % 3.17 C
78 09-01-2022 06:25:00 3.9 C 95 % 3.17 C
79 09-01-2022 06:30:00 4 C 95 % 3.27 C
80 09-01-2022 06:35:00 4 C 95 % 3.27 C
81 09-01-2022 06:40:00 4.1 C 95 % 3.37 C
82 09-01-2022 06:45:00 4.1 C 95 % 3.37 C
83 09-01-2022 06:50:00 4.2 C 95 % 3.47 C
84 09-01-2022 06:55:00 4.2 C 95 % 3.47 C
85 09-01-2022 07:00:00 4.2 C 95 % 3.47 C
86 09-01-2022 07:05:00 4.2 C 95 % 3.47 C
87 09-01-2022 07:10:00 4.2 C 95 % 3.47 C
88 09-01-2022 07:15:00 4.2 C 95 % 3.47 C
89 09-01-2022 07:20:00 4.2 C 95 % 3.47 C
90 09-01-2022 07:25:00 4.2 C 95 % 3.47 C
91 09-01-2022 07:30:00 4.2 C 95 % 3.47 C
92 09-01-2022 07:35:00 4.3 C 95 % 3.57 C
93 09-01-2022 07:40:00 4.3 C 95 % 3.57 C
94 09-01-2022 07:45:00 4.3 C 95 % 3.57 C
95 09-01-2022 07:50:00 4.3 C 95 % 3.57 C
96 09-01-2022 07:55:00 4.2 C 94 % 3.32 C
97 09-01-2022 08:00:00 4.2 C 94 % 3.32 C
98 09-01-2022 08:05:00 4.2 C 94 % 3.32 C
99 09-01-2022 08:10:00 4.2 C 94 % 3.32 C
100 09-01-2022 08:15:00 4.2 C 94 % 3.32 C
Sensor: Nr:Datum:Temp:Feuchte:Taupunkt:
Aussen-T/F 101 09-01-2022 08:20:00 4.2 C 94 % 3.32 C
102 09-01-2022 08:25:00 4.2 C 94 % 3.32 C
103 09-01-2022 08:30:00 4.2 C 94 % 3.32 C
104 09-01-2022 08:35:00 4.2 C 94 % 3.32 C
105 09-01-2022 08:40:00 4.2 C 94 % 3.32 C
106 09-01-2022 08:45:00 4.2 C 94 % 3.32 C
107 09-01-2022 08:50:00 4.2 C 94 % 3.32 C
108 09-01-2022 08:55:00 4.2 C 93 % 3.17 C
109 09-01-2022 09:00:00 4.2 C 93 % 3.17 C
110 09-01-2022 09:05:00 4.2 C 93 % 3.17 C
111 09-01-2022 09:10:00 4.2 C 93 % 3.17 C
112 09-01-2022 09:15:00 4.2 C 93 % 3.17 C
113 09-01-2022 09:20:00 4.2 C 93 % 3.17 C
114 09-01-2022 09:25:00 4.3 C 93 % 3.27 C
115 09-01-2022 09:30:00 4.3 C 92 % 3.12 C
116 09-01-2022 09:35:00 4.3 C 92 % 3.12 C
117 09-01-2022 09:40:00 4.3 C 92 % 3.12 C
118 09-01-2022 09:45:00 4.3 C 92 % 3.12 C
119 09-01-2022 09:50:00 4.3 C 92 % 3.12 C
120 09-01-2022 09:55:00 4.3 C 93 % 3.27 C
121 09-01-2022 10:00:00 4.3 C 93 % 3.27 C
122 09-01-2022 10:05:00 4.3 C 93 % 3.27 C
123 09-01-2022 10:10:00 4.3 C 92 % 3.12 C
124 09-01-2022 10:15:00 4.4 C 92 % 3.22 C
125 09-01-2022 10:20:00 4.4 C 92 % 3.22 C
Sensor: Nr:Datum:Temp:Feuchte:Taupunkt:
Aussen-T/F 126 09-01-2022 10:25:00 4.6 C 91 % 3.26 C
127 09-01-2022 10:30:00 4.6 C 91 % 3.26 C
128 09-01-2022 10:35:00 4.6 C 91 % 3.26 C
129 09-01-2022 10:40:00 4.7 C 91 % 3.36 C
130 09-01-2022 10:45:00 4.7 C 91 % 3.36 C
131 09-01-2022 10:50:00 4.7 C 91 % 3.36 C
132 09-01-2022 10:55:00 4.8 C 91 % 3.46 C
133 09-01-2022 11:00:00 4.8 C 91 % 3.46 C
134 09-01-2022 11:05:00 4.8 C 90 % 3.3 C
135 09-01-2022 11:10:00 4.9 C 89 % 3.24 C
136 09-01-2022 11:15:00 4.9 C 89 % 3.24 C
137 09-01-2022 11:20:00 5 C 89 % 3.34 C
138 09-01-2022 11:25:00 5.1 C 89 % 3.44 C
139 09-01-2022 11:30:00 5.1 C 89 % 3.44 C
140 09-01-2022 11:35:00 5.1 C 88 % 3.28 C
141 09-01-2022 11:40:00 5.2 C 88 % 3.38 C
142 09-01-2022 11:45:00 5.2 C 88 % 3.38 C
143 09-01-2022 11:50:00 5.3 C 88 % 3.48 C
144 09-01-2022 11:55:00 5.3 C 88 % 3.48 C
145 09-01-2022 12:00:00 5.3 C 88 % 3.48 C
146 09-01-2022 12:05:00 5.4 C 88 % 3.58 C
147 09-01-2022 12:10:00 5.4 C 88 % 3.58 C
148 09-01-2022 12:15:00 5.4 C 88 % 3.58 C
149 09-01-2022 12:20:00 5.4 C 88 % 3.58 C
150 09-01-2022 12:25:00 5.6 C 87 % 3.61 C
Sensor: Nr:Datum:Temp:Feuchte:Taupunkt:
Aussen-T/F 151 09-01-2022 12:30:00 5.6 C 87 % 3.61 C
152 09-01-2022 12:35:00 5.5 C 87 % 3.51 C
153 09-01-2022 12:40:00 5.5 C 88 % 3.67 C
154 09-01-2022 12:45:00 5.6 C 89 % 3.93 C
155 09-01-2022 12:50:00 5.7 C 89 % 4.03 C
156 09-01-2022 12:55:00 5.7 C 88 % 3.87 C
157 09-01-2022 13:00:00 5.7 C 88 % 3.87 C
158 09-01-2022 13:05:00 5.8 C 88 % 3.97 C
159 09-01-2022 13:10:00 5.9 C 87 % 3.91 C
160 09-01-2022 13:15:00 5.9 C 87 % 3.91 C
161 09-01-2022 13:20:00 5.9 C 86 % 3.74 C
162 09-01-2022 13:25:00 5.8 C 87 % 3.81 C
163 09-01-2022 13:30:00 5.8 C 87 % 3.81 C
164 09-01-2022 13:35:00 5.8 C 87 % 3.81 C
165 09-01-2022 13:40:00 5.8 C 87 % 3.81 C
166 09-01-2022 13:45:00 5.8 C 86 % 3.64 C
167 09-01-2022 13:50:00 5.7 C 87 % 3.71 C
168 09-01-2022 13:55:00 5.7 C 88 % 3.87 C
169 09-01-2022 14:00:00 5.6 C 88 % 3.77 C
170 09-01-2022 14:05:00 5.6 C 89 % 3.93 C
171 09-01-2022 14:10:00 5.6 C 89 % 3.93 C
172 09-01-2022 14:15:00 5.7 C 88 % 3.87 C
173 09-01-2022 14:20:00 5.7 C 88 % 3.87 C
174 09-01-2022 14:25:00 5.7 C 88 % 3.87 C
175 09-01-2022 14:30:00 5.7 C 87 % 3.71 C
Sensor: Nr:Datum:Temp:Feuchte:Taupunkt:
Aussen-T/F 176 09-01-2022 14:35:00 5.7 C 87 % 3.71 C
177 09-01-2022 14:40:00 5.7 C 87 % 3.71 C
178 09-01-2022 14:45:00 5.7 C 86 % 3.55 C
179 09-01-2022 14:50:00 5.8 C 85 % 3.48 C
180 09-01-2022 14:55:00 5.8 C 85 % 3.48 C
181 09-01-2022 15:00:00 5.8 C 85 % 3.48 C
182 09-01-2022 15:05:00 5.7 C 85 % 3.38 C
183 09-01-2022 15:10:00 5.7 C 85 % 3.38 C
184 09-01-2022 15:15:00 5.7 C 85 % 3.38 C
185 09-01-2022 15:20:00 5.8 C 85 % 3.48 C
186 09-01-2022 15:25:00 5.8 C 85 % 3.48 C
187 09-01-2022 15:30:00 5.8 C 85 % 3.48 C
188 09-01-2022 15:35:00 5.8 C 85 % 3.48 C
189 09-01-2022 15:40:00 5.7 C 84 % 3.21 C
190 09-01-2022 15:45:00 5.7 C 84 % 3.21 C
191 09-01-2022 15:50:00 5.7 C 85 % 3.38 C
192 09-01-2022 15:55:00 5.6 C 85 % 3.28 C
193 09-01-2022 16:00:00 5.6 C 85 % 3.28 C
194 09-01-2022 16:05:00 5.5 C 85 % 3.18 C
195 09-01-2022 16:10:00 5.5 C 85 % 3.18 C
196 09-01-2022 16:15:00 5.4 C 86 % 3.25 C
197 09-01-2022 16:20:00 5.4 C 86 % 3.25 C
198 09-01-2022 16:25:00 5.3 C 86 % 3.15 C
199 09-01-2022 16:30:00 5.3 C 86 % 3.15 C
200 09-01-2022 16:35:00 5.3 C 86 % 3.15 C
Sensor: Nr:Datum:Temp:Feuchte:Taupunkt:
Aussen-T/F 201 09-01-2022 16:40:00 5.2 C 86 % 3.05 C
202 09-01-2022 16:45:00 5.2 C 86 % 3.05 C
203 09-01-2022 16:50:00 5.2 C 86 % 3.05 C
204 09-01-2022 16:55:00 5.1 C 86 % 2.96 C
205 09-01-2022 17:00:00 5.1 C 87 % 3.12 C
206 09-01-2022 17:05:00 5.1 C 87 % 3.12 C
207 09-01-2022 17:10:00 5 C 87 % 3.02 C
208 09-01-2022 17:15:00 5 C 87 % 3.02 C
209 09-01-2022 17:20:00 5 C 87 % 3.02 C
210 09-01-2022 17:25:00 5 C 87 % 3.02 C
211 09-01-2022 17:30:00 4.9 C 87 % 2.92 C
212 09-01-2022 17:35:00 4.9 C 88 % 3.08 C
213 09-01-2022 17:40:00 4.9 C 88 % 3.08 C
214 09-01-2022 17:45:00 4.8 C 88 % 2.99 C
215 09-01-2022 17:50:00 4.7 C 88 % 2.89 C
216 09-01-2022 17:55:00 4.7 C 88 % 2.89 C
217 09-01-2022 18:00:00 4.7 C 89 % 3.05 C
218 09-01-2022 18:05:00 4.7 C 88 % 2.89 C
219 09-01-2022 18:10:00 4.6 C 88 % 2.79 C
220 09-01-2022 18:15:00 4.4 C 88 % 2.59 C
221 09-01-2022 18:20:00 4.3 C 88 % 2.49 C
222 09-01-2022 18:25:00 4.2 C 89 % 2.55 C
223 09-01-2022 18:30:00 4.1 C 89 % 2.45 C
224 09-01-2022 18:35:00 4 C 89 % 2.36 C
225 09-01-2022 18:40:00 3.9 C 89 % 2.26 C
Sensor: Nr:Datum:Temp:Feuchte:Taupunkt:
Aussen-T/F 226 09-01-2022 18:45:00 3.9 C 90 % 2.41 C
227 09-01-2022 18:50:00 3.9 C 90 % 2.41 C
228 09-01-2022 18:55:00 3.9 C 90 % 2.41 C
229 09-01-2022 19:00:00 3.9 C 90 % 2.41 C
230 09-01-2022 19:05:00 4 C 90 % 2.51 C
231 09-01-2022 19:10:00 4 C 90 % 2.51 C
232 09-01-2022 19:15:00 4 C 90 % 2.51 C
233 09-01-2022 19:20:00 3.9 C 90 % 2.41 C
234 09-01-2022 19:25:00 3.9 C 90 % 2.41 C
235 09-01-2022 19:30:00 3.9 C 90 % 2.41 C
236 09-01-2022 19:35:00 3.8 C 91 % 2.47 C
237 09-01-2022 19:40:00 3.8 C 91 % 2.47 C
238 09-01-2022 19:45:00 3.7 C 91 % 2.37 C
239 09-01-2022 19:50:00 3.6 C 91 % 2.27 C
240 09-01-2022 19:55:00 3.6 C 91 % 2.27 C
241 09-01-2022 20:00:00 3.5 C 91 % 2.17 C
242 09-01-2022 20:05:00 3.5 C 92 % 2.33 C
243 09-01-2022 20:10:00 3.4 C 92 % 2.23 C
244 09-01-2022 20:15:00 3.4 C 92 % 2.23 C
245 09-01-2022 20:20:00 3.4 C 92 % 2.23 C
246 09-01-2022 20:25:00 3.4 C 92 % 2.23 C
247 09-01-2022 20:30:00 3.4 C 92 % 2.23 C
248 09-01-2022 20:35:00 3.5 C 92 % 2.33 C
249 09-01-2022 20:40:00 3.4 C 92 % 2.23 C
250 09-01-2022 20:45:00 3.5 C 93 % 2.48 C
Sensor: Nr:Datum:Temp:Feuchte:Taupunkt:
Aussen-T/F 251 09-01-2022 20:50:00 3.4 C 93 % 2.38 C
252 09-01-2022 20:55:00 3.4 C 93 % 2.38 C
253 09-01-2022 21:00:00 3.4 C 93 % 2.38 C
254 09-01-2022 21:05:00 3.5 C 93 % 2.48 C
255 09-01-2022 21:10:00 3.5 C 93 % 2.48 C
256 09-01-2022 21:15:00 3.5 C 93 % 2.48 C
257 09-01-2022 21:20:00 3.5 C 93 % 2.48 C
258 09-01-2022 21:25:00 3.6 C 93 % 2.58 C
259 09-01-2022 21:30:00 3.6 C 93 % 2.58 C
260 09-01-2022 21:35:00 3.6 C 93 % 2.58 C
261 09-01-2022 21:40:00 3.5 C 93 % 2.48 C
262 09-01-2022 21:45:00 3.5 C 93 % 2.48 C
263 09-01-2022 21:50:00 3.5 C 93 % 2.48 C
264 09-01-2022 21:55:00 3.5 C 93 % 2.48 C
265 09-01-2022 22:00:00 3.5 C 93 % 2.48 C
266 09-01-2022 22:05:00 3.5 C 93 % 2.48 C
267 09-01-2022 22:10:00 3.5 C 93 % 2.48 C
268 09-01-2022 22:15:00 3.5 C 93 % 2.48 C
269 09-01-2022 22:20:00 3.4 C 93 % 2.38 C
270 09-01-2022 22:25:00 3.3 C 93 % 2.28 C
271 09-01-2022 22:30:00 3.2 C 93 % 2.18 C
272 09-01-2022 22:35:00 3.1 C 93 % 2.08 C
273 09-01-2022 22:40:00 2.9 C 93 % 1.88 C
274 09-01-2022 22:45:00 2.8 C 93 % 1.78 C
275 09-01-2022 22:50:00 2.7 C 93 % 1.68 C
Sensor: Nr:Datum:Temp:Feuchte:Taupunkt:
Aussen-T/F 276 09-01-2022 22:55:00 2.7 C 93 % 1.68 C
277 09-01-2022 23:00:00 2.7 C 94 % 1.83 C
278 09-01-2022 23:05:00 2.7 C 94 % 1.83 C
279 09-01-2022 23:10:00 2.6 C 94 % 1.73 C
280 09-01-2022 23:15:00 2.5 C 94 % 1.63 C
281 09-01-2022 23:20:00 2.5 C 94 % 1.63 C
282 09-01-2022 23:25:00 2.4 C 94 % 1.54 C
283 09-01-2022 23:30:00 2.4 C 94 % 1.54 C
284 09-01-2022 23:35:00 2.4 C 94 % 1.54 C
285 09-01-2022 23:40:00 2.4 C 94 % 1.54 C
286 09-01-2022 23:45:00 2.4 C 94 % 1.54 C
287 09-01-2022 23:50:00 2.4 C 94 % 1.54 C
288 09-01-2022 23:55:00 2.4 C 94 % 1.54 C
289 10-01-2022 00:00:00 2.4 C 94 % 1.54 C
290 10-01-2022 00:05:00 2.4 C 94 % 1.54 C
291 10-01-2022 00:10:00 2.4 C 94 % 1.54 C
292 10-01-2022 00:15:00 2.4 C 95 % 1.68 C
293 10-01-2022 00:20:00 2.4 C 95 % 1.68 C
294 10-01-2022 00:25:00 2.3 C 94 % 1.44 C
295 10-01-2022 00:30:00 2.3 C 95 % 1.58 C
296 10-01-2022 00:35:00 2.3 C 95 % 1.58 C
297 10-01-2022 00:40:00 2.4 C 95 % 1.68 C
298 10-01-2022 00:45:00 2.4 C 95 % 1.68 C
299 10-01-2022 00:50:00 2.4 C 95 % 1.68 C
300 10-01-2022 00:55:00 2.4 C 95 % 1.68 C
Sensor: Nr:Datum:Temp:Feuchte:Taupunkt:
Aussen-T/F 301 10-01-2022 01:00:00 2.4 C 95 % 1.68 C
302 10-01-2022 01:05:00 2.4 C 95 % 1.68 C
303 10-01-2022 01:10:00 2.3 C 95 % 1.58 C
304 10-01-2022 01:15:00 2.3 C 95 % 1.58 C
305 10-01-2022 01:20:00 2.2 C 95 % 1.48 C
306 10-01-2022 01:25:00 2.2 C 95 % 1.48 C
307 10-01-2022 01:30:00 2.1 C 95 % 1.38 C
308 10-01-2022 01:35:00 1.9 C 95 % 1.19 C
309 10-01-2022 01:40:00 1.8 C 94 % 0.94 C
310 10-01-2022 01:45:00 1.7 C 94 % 0.84 C
311 10-01-2022 01:50:00 1.5 C 94 % 0.64 C
312 10-01-2022 01:55:00 1.4 C 94 % 0.54 C
313 10-01-2022 02:00:00 1.3 C 94 % 0.44 C
314 10-01-2022 02:05:00 1.2 C 94 % 0.34 C
315 10-01-2022 02:10:00 1 C 94 % 0.15 C
316 10-01-2022 02:15:00 0.9 C 94 % 0.05 C
317 10-01-2022 02:20:00 0.8 C 95 % 0.09 C
318 10-01-2022 02:25:00 0.8 C 94 % -0.05 C
319 10-01-2022 02:30:00 0.8 C 95 % 0.09 C
320 10-01-2022 02:35:00 0.8 C 95 % 0.09 C
321 10-01-2022 02:40:00 0.8 C 95 % 0.09 C
322 10-01-2022 02:45:00 0.8 C 95 % 0.09 C
323 10-01-2022 02:50:00 0.8 C 95 % 0.09 C
324 10-01-2022 02:55:00 0.8 C 95 % 0.09 C
325 10-01-2022 03:00:00 0.9 C 95 % 0.19 C
Sensor: Nr:Datum:Temp:Feuchte:Taupunkt:
Aussen-T/F 326 10-01-2022 03:05:00 0.9 C 95 % 0.19 C
327 10-01-2022 03:10:00 1 C 95 % 0.29 C
328 10-01-2022 03:15:00 1.2 C 95 % 0.49 C
329 10-01-2022 03:20:00 1.3 C 96 % 0.73 C
330 10-01-2022 03:25:00 1.4 C 96 % 0.83 C
331 10-01-2022 03:30:00 1.6 C 96 % 1.03 C
332 10-01-2022 03:35:00 1.7 C 96 % 1.13 C
333 10-01-2022 03:40:00 1.7 C 96 % 1.13 C
334 10-01-2022 03:45:00 1.8 C 96 % 1.23 C
335 10-01-2022 03:50:00 1.8 C 96 % 1.23 C
336 10-01-2022 03:55:00 1.9 C 96 % 1.33 C
337 10-01-2022 04:00:00 1.9 C 96 % 1.33 C
338 10-01-2022 04:05:00 1.9 C 96 % 1.33 C
339 10-01-2022 04:10:00 2 C 96 % 1.43 C
340 10-01-2022 04:15:00 2 C 96 % 1.43 C
341 10-01-2022 04:20:00 2.1 C 96 % 1.53 C
342 10-01-2022 04:25:00 2.1 C 96 % 1.53 C
343 10-01-2022 04:30:00 2.1 C 96 % 1.53 C
344 10-01-2022 04:35:00 2.1 C 96 % 1.53 C
345 10-01-2022 04:40:00 2.1 C 96 % 1.53 C
346 10-01-2022 04:45:00 2.1 C 96 % 1.53 C
347 10-01-2022 04:50:00 2.1 C 96 % 1.53 C
348 10-01-2022 04:55:00 2.1 C 96 % 1.53 C
349 10-01-2022 05:00:00 2.1 C 96 % 1.53 C
350 10-01-2022 05:05:00 2.2 C 96 % 1.63 C
Sensor: Nr:Datum:Temp:Feuchte:Taupunkt:
Aussen-T/F 351 10-01-2022 05:10:00 2.2 C 96 % 1.63 C
352 10-01-2022 05:15:00 2.2 C 96 % 1.63 C
353 10-01-2022 05:20:00 2.2 C 96 % 1.63 C
354 10-01-2022 05:25:00 2.2 C 96 % 1.63 C
355 10-01-2022 05:30:00 2.2 C 95 % 1.48 C
356 10-01-2022 05:35:00 2.1 C 95 % 1.38 C
357 10-01-2022 05:40:00 2.1 C 95 % 1.38 C
358 10-01-2022 05:45:00 2.1 C 95 % 1.38 C
359 10-01-2022 05:50:00 2.1 C 95 % 1.38 C
360 10-01-2022 05:55:00 2.1 C 95 % 1.38 C
361 10-01-2022 06:00:00 2.1 C 95 % 1.38 C
362 10-01-2022 06:05:00 2.1 C 95 % 1.38 C
363 10-01-2022 06:10:00 2.1 C 95 % 1.38 C
364 10-01-2022 06:15:00 2.1 C 95 % 1.38 C
365 10-01-2022 06:20:00 2 C 95 % 1.29 C
366 10-01-2022 06:25:00 2 C 95 % 1.29 C
367 10-01-2022 06:30:00 1.9 C 95 % 1.19 C
368 10-01-2022 06:35:00 1.9 C 95 % 1.19 C
369 10-01-2022 06:40:00 1.8 C 95 % 1.09 C
370 10-01-2022 06:45:00 1.8 C 95 % 1.09 C
371 10-01-2022 06:50:00 1.8 C 95 % 1.09 C
372 10-01-2022 06:55:00 1.7 C 95 % 0.99 C
373 10-01-2022 07:00:00 1.6 C 95 % 0.89 C
374 10-01-2022 07:05:00 1.5 C 95 % 0.79 C
375 10-01-2022 07:10:00 1.4 C 95 % 0.69 C
Sensor: Nr:Datum:Temp:Feuchte:Taupunkt:
Aussen-T/F 376 10-01-2022 07:15:00 1.4 C 95 % 0.69 C
377 10-01-2022 07:20:00 1.4 C 95 % 0.69 C
378 10-01-2022 07:25:00 1.3 C 95 % 0.59 C
379 10-01-2022 07:30:00 1.3 C 95 % 0.59 C
380 10-01-2022 07:35:00 1.3 C 95 % 0.59 C
381 10-01-2022 07:40:00 1.3 C 95 % 0.59 C
382 10-01-2022 07:45:00 1.3 C 95 % 0.59 C
383 10-01-2022 07:50:00 1.3 C 95 % 0.59 C
384 10-01-2022 07:55:00 1.3 C 95 % 0.59 C
385 10-01-2022 08:00:00 1.4 C 96 % 0.83 C
386 10-01-2022 08:05:00 1.4 C 96 % 0.83 C
387 10-01-2022 08:10:00 1.4 C 96 % 0.83 C
388 10-01-2022 08:15:00 1.4 C 96 % 0.83 C
389 10-01-2022 08:20:00 1.4 C 96 % 0.83 C
390 10-01-2022 08:25:00 1.4 C 96 % 0.83 C
391 10-01-2022 08:30:00 1.4 C 96 % 0.83 C
392 10-01-2022 08:35:00 1.4 C 96 % 0.83 C
393 10-01-2022 08:40:00 1.4 C 96 % 0.83 C
394 10-01-2022 08:45:00 1.4 C 96 % 0.83 C
395 10-01-2022 08:50:00 1.4 C 96 % 0.83 C
396 10-01-2022 08:55:00 1.4 C 96 % 0.83 C
397 10-01-2022 09:00:00 1.4 C 96 % 0.83 C
398 10-01-2022 09:05:00 1.4 C 96 % 0.83 C
399 10-01-2022 09:10:00 1.4 C 96 % 0.83 C
400 10-01-2022 09:15:00 1.3 C 96 % 0.73 C
Sensor: Nr:Datum:Temp:Feuchte:Taupunkt:
Aussen-T/F 401 10-01-2022 09:20:00 1.3 C 96 % 0.73 C
402 10-01-2022 09:25:00 1.3 C 96 % 0.73 C
403 10-01-2022 09:30:00 1.3 C 96 % 0.73 C
404 10-01-2022 09:35:00 1.2 C 96 % 0.63 C
405 10-01-2022 09:40:00 1.2 C 96 % 0.63 C
406 10-01-2022 09:45:00 1.3 C 96 % 0.73 C
407 10-01-2022 09:50:00 1.2 C 96 % 0.63 C
408 10-01-2022 09:55:00 1.2 C 96 % 0.63 C
409 10-01-2022 10:00:00 1.3 C 96 % 0.73 C
410 10-01-2022 10:05:00 1.3 C 96 % 0.73 C
411 10-01-2022 10:10:00 1.2 C 96 % 0.63 C
412 10-01-2022 10:15:00 1.2 C 96 % 0.63 C
413 10-01-2022 10:20:00 1.3 C 96 % 0.73 C
414 10-01-2022 10:25:00 1.3 C 96 % 0.73 C
415 10-01-2022 10:30:00 1.3 C 96 % 0.73 C
416 10-01-2022 10:35:00 1.4 C 96 % 0.83 C
417 10-01-2022 10:40:00 1.4 C 96 % 0.83 C
418 10-01-2022 10:45:00 1.4 C 96 % 0.83 C
419 10-01-2022 10:50:00 1.4 C 96 % 0.83 C
420 10-01-2022 10:55:00 1.5 C 96 % 0.93 C
421 10-01-2022 11:00:00 1.6 C 96 % 1.03 C
422 10-01-2022 11:05:00 1.6 C 96 % 1.03 C
423 10-01-2022 11:10:00 1.7 C 96 % 1.13 C
424 10-01-2022 11:15:00 1.8 C 96 % 1.23 C
425 10-01-2022 11:20:00 1.9 C 96 % 1.33 C
Sensor: Nr:Datum:Temp:Feuchte:Taupunkt:
Aussen-T/F 426 10-01-2022 11:25:00 1.9 C 96 % 1.33 C
427 10-01-2022 11:30:00 1.8 C 96 % 1.23 C
428 10-01-2022 11:35:00 1.8 C 96 % 1.23 C
429 10-01-2022 11:40:00 1.8 C 96 % 1.23 C
430 10-01-2022 11:45:00 1.9 C 96 % 1.33 C
431 10-01-2022 11:50:00 1.9 C 96 % 1.33 C
432 10-01-2022 11:55:00 1.9 C 96 % 1.33 C
433 10-01-2022 12:00:00 1.9 C 96 % 1.33 C
434 10-01-2022 12:05:00 1.9 C 96 % 1.33 C
435 10-01-2022 12:10:00 2.1 C 96 % 1.53 C
436 10-01-2022 12:15:00 2.2 C 96 % 1.63 C
437 10-01-2022 12:20:00 2.2 C 96 % 1.63 C
438 10-01-2022 12:25:00 2.2 C 96 % 1.63 C
439 10-01-2022 12:30:00 2.3 C 96 % 1.73 C
440 10-01-2022 12:35:00 2.3 C 96 % 1.73 C
441 10-01-2022 12:40:00 2.3 C 96 % 1.73 C
442 10-01-2022 12:45:00 2.4 C 96 % 1.83 C
443 10-01-2022 12:50:00 2.4 C 95 % 1.68 C
444 10-01-2022 12:55:00 2.5 C 96 % 1.93 C
445 10-01-2022 13:00:00 2.5 C 95 % 1.78 C
446 10-01-2022 13:05:00 2.6 C 95 % 1.88 C
447 10-01-2022 13:10:00 2.6 C 95 % 1.88 C
448 10-01-2022 13:15:00 2.7 C 95 % 1.98 C
449 10-01-2022 13:20:00 2.8 C 95 % 2.08 C
450 10-01-2022 13:25:00 2.8 C 95 % 2.08 C
Sensor: Nr:Datum:Temp:Feuchte:Taupunkt:
Aussen-T/F 451 10-01-2022 13:30:00 2.8 C 95 % 2.08 C
452 10-01-2022 13:35:00 2.8 C 94 % 1.93 C
453 10-01-2022 13:40:00 2.8 C 94 % 1.93 C
454 10-01-2022 13:45:00 2.8 C 94 % 1.93 C
455 10-01-2022 13:50:00 2.8 C 94 % 1.93 C
456 10-01-2022 13:55:00 2.8 C 94 % 1.93 C
457 10-01-2022 14:00:00 2.8 C 94 % 1.93 C
458 10-01-2022 14:05:00 2.8 C 94 % 1.93 C
459 10-01-2022 14:10:00 2.8 C 94 % 1.93 C
460 10-01-2022 14:15:00 2.8 C 94 % 1.93 C
461 10-01-2022 14:20:00 2.8 C 94 % 1.93 C
462 10-01-2022 14:25:00 2.8 C 94 % 1.93 C
463 10-01-2022 14:30:00 2.8 C 94 % 1.93 C
464 10-01-2022 14:35:00 2.8 C 94 % 1.93 C
465 10-01-2022 14:40:00 2.8 C 94 % 1.93 C
466 10-01-2022 14:45:00 2.8 C 94 % 1.93 C
467 10-01-2022 14:50:00 2.8 C 94 % 1.93 C
468 10-01-2022 14:55:00 2.8 C 94 % 1.93 C
469 10-01-2022 15:00:00 2.8 C 93 % 1.78 C
470 10-01-2022 15:05:00 2.8 C 93 % 1.78 C
471 10-01-2022 15:10:00 2.9 C 93 % 1.88 C
472 10-01-2022 15:15:00 2.8 C 93 % 1.78 C
473 10-01-2022 15:20:00 2.9 C 93 % 1.88 C
474 10-01-2022 15:25:00 2.9 C 93 % 1.88 C
475 10-01-2022 15:30:00 2.9 C 93 % 1.88 C
Sensor: Nr:Datum:Temp:Feuchte:Taupunkt:
Aussen-T/F 476 10-01-2022 15:35:00 2.9 C 93 % 1.88 C
477 10-01-2022 15:40:00 2.9 C 93 % 1.88 C
478 10-01-2022 15:45:00 2.9 C 93 % 1.88 C
479 10-01-2022 15:50:00 2.9 C 93 % 1.88 C
480 10-01-2022 15:55:00 2.9 C 93 % 1.88 C
481 10-01-2022 16:00:00 2.9 C 93 % 1.88 C
482 10-01-2022 16:05:00 2.9 C 93 % 1.88 C
483 10-01-2022 16:10:00 2.8 C 93 % 1.78 C
484 10-01-2022 16:15:00 2.9 C 93 % 1.88 C
485 10-01-2022 16:20:00 2.8 C 93 % 1.78 C
486 10-01-2022 16:25:00 2.8 C 92 % 1.63 C
487 10-01-2022 16:30:00 2.8 C 92 % 1.63 C
488 10-01-2022 16:35:00 2.8 C 92 % 1.63 C
489 10-01-2022 16:40:00 2.8 C 92 % 1.63 C
490 10-01-2022 16:45:00 2.7 C 92 % 1.53 C
491 10-01-2022 16:50:00 2.7 C 92 % 1.53 C
492 10-01-2022 16:55:00 2.7 C 92 % 1.53 C
493 10-01-2022 17:00:00 2.6 C 92 % 1.43 C
494 10-01-2022 17:05:00 2.6 C 92 % 1.43 C
495 10-01-2022 17:10:00 2.5 C 92 % 1.34 C
496 10-01-2022 17:15:00 2.4 C 92 % 1.24 C
497 10-01-2022 17:20:00 2.5 C 92 % 1.34 C
498 10-01-2022 17:25:00 2.4 C 92 % 1.24 C
499 10-01-2022 17:30:00 2.4 C 92 % 1.24 C
500 10-01-2022 17:35:00 2.4 C 92 % 1.24 C
Sensor: Nr:Datum:Temp:Feuchte:Taupunkt:
Aussen-T/F 501 10-01-2022 17:40:00 2.4 C 92 % 1.24 C
502 10-01-2022 17:45:00 2.4 C 93 % 1.39 C
503 10-01-2022 17:50:00 2.4 C 93 % 1.39 C
504 10-01-2022 17:55:00 2.4 C 93 % 1.39 C
505 10-01-2022 18:00:00 2.4 C 93 % 1.39 C
506 10-01-2022 18:05:00 2.3 C 93 % 1.29 C
507 10-01-2022 18:10:00 2.3 C 93 % 1.29 C
508 10-01-2022 18:15:00 2.3 C 93 % 1.29 C
509 10-01-2022 18:20:00 2.3 C 93 % 1.29 C
510 10-01-2022 18:25:00 2.3 C 93 % 1.29 C
511 10-01-2022 18:30:00 2.2 C 93 % 1.19 C
512 10-01-2022 18:35:00 2.2 C 93 % 1.19 C
513 10-01-2022 18:40:00 2.2 C 93 % 1.19 C
514 10-01-2022 18:45:00 2.2 C 93 % 1.19 C
515 10-01-2022 18:50:00 2.1 C 92 % 0.94 C
516 10-01-2022 18:55:00 2 C 92 % 0.84 C
517 10-01-2022 19:00:00 1.9 C 93 % 0.89 C
518 10-01-2022 19:05:00 1.9 C 93 % 0.89 C
519 10-01-2022 19:10:00 1.8 C 93 % 0.79 C
520 10-01-2022 19:15:00 1.8 C 93 % 0.79 C
521 10-01-2022 19:20:00 1.8 C 93 % 0.79 C
522 10-01-2022 19:25:00 1.8 C 93 % 0.79 C
523 10-01-2022 19:30:00 1.8 C 93 % 0.79 C
524 10-01-2022 19:35:00 1.8 C 93 % 0.79 C
525 10-01-2022 19:40:00 1.8 C 93 % 0.79 C
Sensor: Nr:Datum:Temp:Feuchte:Taupunkt:
Aussen-T/F 526 10-01-2022 19:45:00 1.8 C 93 % 0.79 C
527 10-01-2022 19:50:00 1.8 C 93 % 0.79 C
528 10-01-2022 19:55:00 1.8 C 93 % 0.79 C
529 10-01-2022 20:00:00 1.9 C 93 % 0.89 C
530 10-01-2022 20:05:00 1.8 C 93 % 0.79 C
531 10-01-2022 20:10:00 1.8 C 93 % 0.79 C
532 10-01-2022 20:15:00 1.9 C 93 % 0.89 C
533 10-01-2022 20:20:00 1.9 C 94 % 1.04 C
534 10-01-2022 20:25:00 1.9 C 94 % 1.04 C
535 10-01-2022 20:30:00 1.9 C 94 % 1.04 C
536 10-01-2022 20:35:00 1.9 C 94 % 1.04 C
537 10-01-2022 20:40:00 1.9 C 94 % 1.04 C
538 10-01-2022 20:45:00 1.9 C 94 % 1.04 C
539 10-01-2022 20:50:00 1.9 C 94 % 1.04 C
540 10-01-2022 20:55:00 1.9 C 94 % 1.04 C
541 10-01-2022 21:00:00 1.9 C 94 % 1.04 C
542 10-01-2022 21:05:00 1.9 C 94 % 1.04 C
543 10-01-2022 21:10:00 1.9 C 94 % 1.04 C
544 10-01-2022 21:15:00 1.9 C 94 % 1.04 C
545 10-01-2022 21:20:00 1.9 C 94 % 1.04 C
546 10-01-2022 21:25:00 1.9 C 94 % 1.04 C
547 10-01-2022 21:30:00 1.9 C 94 % 1.04 C
548 10-01-2022 21:35:00 1.9 C 94 % 1.04 C
549 10-01-2022 21:40:00 1.9 C 94 % 1.04 C
550 10-01-2022 21:45:00 1.9 C 94 % 1.04 C
Sensor: Nr:Datum:Temp:Feuchte:Taupunkt:
Aussen-T/F 551 10-01-2022 21:50:00 1.9 C 94 % 1.04 C
552 10-01-2022 21:55:00 1.9 C 94 % 1.04 C
553 10-01-2022 22:00:00 1.8 C 94 % 0.94 C
554 10-01-2022 22:05:00 1.8 C 93 % 0.79 C
555 10-01-2022 22:10:00 1.8 C 94 % 0.94 C
556 10-01-2022 22:15:00 1.8 C 94 % 0.94 C
557 10-01-2022 22:20:00 1.7 C 94 % 0.84 C
558 10-01-2022 22:25:00 1.7 C 94 % 0.84 C
559 10-01-2022 22:30:00 1.7 C 94 % 0.84 C
560 10-01-2022 22:35:00 1.7 C 94 % 0.84 C
561 10-01-2022 22:40:00 1.6 C 94 % 0.74 C
562 10-01-2022 22:45:00 1.6 C 94 % 0.74 C
563 10-01-2022 22:50:00 1.5 C 94 % 0.64 C
564 10-01-2022 22:55:00 1.5 C 94 % 0.64 C
565 10-01-2022 23:00:00 1.5 C 94 % 0.64 C
566 10-01-2022 23:05:00 1.5 C 94 % 0.64 C
567 10-01-2022 23:10:00 1.4 C 94 % 0.54 C
568 10-01-2022 23:15:00 1.4 C 94 % 0.54 C
569 10-01-2022 23:20:00 1.4 C 94 % 0.54 C
570 10-01-2022 23:25:00 1.4 C 94 % 0.54 C
571 10-01-2022 23:30:00 1.4 C 94 % 0.54 C
572 10-01-2022 23:35:00 1.4 C 94 % 0.54 C
573 10-01-2022 23:40:00 1.4 C 94 % 0.54 C
574 10-01-2022 23:45:00 1.4 C 94 % 0.54 C
575 10-01-2022 23:50:00 1.4 C 94 % 0.54 C
Sensor: Nr:Datum:Temp:Feuchte:Taupunkt:
Aussen-T/F 576 10-01-2022 23:55:00 1.4 C 94 % 0.54 C
577 11-01-2022 00:00:00 1.3 C 94 % 0.44 C
578 11-01-2022 00:05:00 1.3 C 94 % 0.44 C
579 11-01-2022 00:10:00 1.3 C 94 % 0.44 C
580 11-01-2022 00:15:00 1.2 C 94 % 0.34 C
581 11-01-2022 00:20:00 1.2 C 94 % 0.34 C
582 11-01-2022 00:25:00 1.2 C 94 % 0.34 C
583 11-01-2022 00:30:00 1.1 C 94 % 0.24 C
584 11-01-2022 00:35:00 1.1 C 94 % 0.24 C
585 11-01-2022 00:40:00 1.1 C 94 % 0.24 C
586 11-01-2022 00:45:00 1.1 C 94 % 0.24 C
587 11-01-2022 00:50:00 1 C 94 % 0.15 C
588 11-01-2022 00:55:00 0.9 C 94 % 0.05 C
589 11-01-2022 01:00:00 0.9 C 94 % 0.05 C
590 11-01-2022 01:05:00 0.8 C 94 % -0.05 C
591 11-01-2022 01:10:00 0.8 C 94 % -0.05 C
592 11-01-2022 01:15:00 0.8 C 94 % -0.05 C
593 11-01-2022 01:20:00 0.7 C 94 % -0.15 C
594 11-01-2022 01:25:00 0.7 C 94 % -0.15 C
595 11-01-2022 01:30:00 0.7 C 94 % -0.15 C
596 11-01-2022 01:35:00 0.7 C 94 % -0.15 C
597 11-01-2022 01:40:00 0.7 C 94 % -0.15 C
598 11-01-2022 01:45:00 0.7 C 94 % -0.15 C
599 11-01-2022 01:50:00 0.7 C 94 % -0.15 C
600 11-01-2022 01:55:00 0.7 C 94 % -0.15 C
Sensor: Nr:Datum:Temp:Feuchte:Taupunkt:
Aussen-T/F 601 11-01-2022 02:00:00 0.6 C 95 % -0.11 C
602 11-01-2022 02:05:00 0.6 C 95 % -0.11 C
603 11-01-2022 02:10:00 0.6 C 95 % -0.11 C
604 11-01-2022 02:15:00 0.6 C 94 % -0.25 C
605 11-01-2022 02:20:00 0.6 C 94 % -0.25 C
606 11-01-2022 02:25:00 0.6 C 95 % -0.11 C
607 11-01-2022 02:30:00 0.6 C 94 % -0.25 C
608 11-01-2022 02:35:00 0.6 C 95 % -0.11 C
609 11-01-2022 02:40:00 0.6 C 95 % -0.11 C
610 11-01-2022 02:45:00 0.6 C 94 % -0.25 C
611 11-01-2022 02:50:00 0.5 C 94 % -0.35 C
612 11-01-2022 02:55:00 0.5 C 94 % -0.35 C
613 11-01-2022 03:00:00 0.4 C 94 % -0.45 C
614 11-01-2022 03:05:00 0.4 C 94 % -0.45 C
615 11-01-2022 03:10:00 0.4 C 94 % -0.45 C
616 11-01-2022 03:15:00 0.4 C 94 % -0.45 C
617 11-01-2022 03:20:00 0.3 C 94 % -0.55 C
618 11-01-2022 03:25:00 0.3 C 95 % -0.4 C
619 11-01-2022 03:30:00 0.3 C 95 % -0.4 C
620 11-01-2022 03:35:00 0.3 C 95 % -0.4 C
621 11-01-2022 03:40:00 0.3 C 95 % -0.4 C
622 11-01-2022 03:45:00 0.3 C 95 % -0.4 C
623 11-01-2022 03:50:00 0.3 C 95 % -0.4 C
624 11-01-2022 03:55:00 0.3 C 95 % -0.4 C
625 11-01-2022 04:00:00 0.3 C 95 % -0.4 C
Sensor: Nr:Datum:Temp:Feuchte:Taupunkt:
Aussen-T/F 626 11-01-2022 04:05:00 0.3 C 95 % -0.4 C
627 11-01-2022 04:10:00 0.2 C 95 % -0.5 C
628 11-01-2022 04:15:00 0.2 C 95 % -0.5 C
629 11-01-2022 04:20:00 0.2 C 95 % -0.5 C
630 11-01-2022 04:25:00 0.2 C 95 % -0.5 C
631 11-01-2022 04:30:00 0.2 C 95 % -0.5 C
632 11-01-2022 04:35:00 0.1 C 95 % -0.6 C
633 11-01-2022 04:40:00 0.1 C 95 % -0.6 C
634 11-01-2022 04:45:00 0 C 95 % -0.7 C
635 11-01-2022 04:50:00 0 C 95 % -0.7 C
636 11-01-2022 04:55:00 -0.1 C 95 % -0.8 C
637 11-01-2022 05:00:00 -0.1 C 95 % -0.8 C
638 11-01-2022 05:05:00 -0.2 C 95 % -0.9 C
639 11-01-2022 05:10:00 -0.2 C 95 % -0.9 C
640 11-01-2022 05:15:00 -0.2 C 95 % -0.9 C
641 11-01-2022 05:20:00 -0.2 C 95 % -0.9 C
642 11-01-2022 05:25:00 -0.3 C 95 % -1 C
643 11-01-2022 05:30:00 -0.3 C 95 % -1 C
644 11-01-2022 05:35:00 -0.3 C 95 % -1 C
645 11-01-2022 05:40:00 -0.3 C 95 % -1 C
646 11-01-2022 05:45:00 -0.3 C 95 % -1 C
647 11-01-2022 05:50:00 -0.3 C 95 % -1 C
648 11-01-2022 05:55:00 -0.3 C 95 % -1 C
649 11-01-2022 06:00:00 -0.3 C 95 % -1 C
650 11-01-2022 06:05:00 -0.3 C 95 % -1 C
Sensor: Nr:Datum:Temp:Feuchte:Taupunkt:
Aussen-T/F 651 11-01-2022 06:10:00 -0.3 C 95 % -1 C
652 11-01-2022 06:15:00 -0.3 C 95 % -1 C
653 11-01-2022 06:20:00 -0.3 C 95 % -1 C
654 11-01-2022 06:25:00 -0.3 C 95 % -1 C
655 11-01-2022 06:30:00 -0.3 C 95 % -1 C
656 11-01-2022 06:35:00 -0.3 C 95 % -1 C
657 11-01-2022 06:40:00 -0.3 C 95 % -1 C
658 11-01-2022 06:45:00 -0.3 C 95 % -1 C
659 11-01-2022 06:50:00 -0.4 C 95 % -1.1 C
660 11-01-2022 06:55:00 -0.4 C 95 % -1.1 C
661 11-01-2022 07:00:00 -0.4 C 95 % -1.1 C
662 11-01-2022 07:05:00 -0.5 C 95 % -1.2 C
663 11-01-2022 07:10:00 -0.5 C 95 % -1.2 C
664 11-01-2022 07:15:00 -0.5 C 95 % -1.2 C
665 11-01-2022 07:20:00 -0.4 C 95 % -1.1 C
666 11-01-2022 07:25:00 -0.4 C 96 % -0.96 C
667 11-01-2022 07:30:00 -0.4 C 96 % -0.96 C
668 11-01-2022 07:35:00 -0.4 C 96 % -0.96 C
669 11-01-2022 07:40:00 -0.4 C 96 % -0.96 C
670 11-01-2022 07:45:00 -0.4 C 96 % -0.96 C
671 11-01-2022 07:50:00 -0.4 C 96 % -0.96 C
672 11-01-2022 07:55:00 -0.4 C 96 % -0.96 C
673 11-01-2022 08:00:00 -0.5 C 96 % -1.06 C
674 11-01-2022 08:05:00 -0.5 C 96 % -1.06 C
675 11-01-2022 08:10:00 -0.6 C 96 % -1.16 C
Sensor: Nr:Datum:Temp:Feuchte:Taupunkt:
Aussen-T/F 676 11-01-2022 08:15:00 -0.6 C 96 % -1.16 C
677 11-01-2022 08:20:00 -0.6 C 96 % -1.16 C
678 11-01-2022 08:25:00 -0.6 C 96 % -1.16 C
679 11-01-2022 08:30:00 -0.6 C 96 % -1.16 C
680 11-01-2022 08:35:00 -0.6 C 96 % -1.16 C
681 11-01-2022 08:40:00 -0.6 C 96 % -1.16 C
682 11-01-2022 08:45:00 -0.6 C 96 % -1.16 C
683 11-01-2022 08:50:00 -0.6 C 96 % -1.16 C
684 11-01-2022 08:55:00 -0.6 C 96 % -1.16 C
685 11-01-2022 09:00:00 -0.6 C 96 % -1.16 C
686 11-01-2022 09:05:00 -0.6 C 96 % -1.16 C
687 11-01-2022 09:10:00 -0.6 C 96 % -1.16 C
688 11-01-2022 09:15:00 -0.6 C 96 % -1.16 C
689 11-01-2022 09:20:00 -0.6 C 96 % -1.16 C
690 11-01-2022 09:25:00 -0.6 C 96 % -1.16 C
691 11-01-2022 09:30:00 -0.6 C 96 % -1.16 C
692 11-01-2022 09:35:00 -0.6 C 96 % -1.16 C
693 11-01-2022 09:40:00 -0.6 C 96 % -1.16 C
694 11-01-2022 09:45:00 -0.6 C 96 % -1.16 C
695 11-01-2022 09:50:00 -0.5 C 96 % -1.06 C
696 11-01-2022 09:55:00 -0.4 C 96 % -0.96 C
697 11-01-2022 10:00:00 -0.4 C 96 % -0.96 C
698 11-01-2022 10:05:00 -0.4 C 96 % -0.96 C
699 11-01-2022 10:10:00 -0.4 C 96 % -0.96 C
700 11-01-2022 10:15:00 -0.4 C 96 % -0.96 C
Sensor: Nr:Datum:Temp:Feuchte:Taupunkt:
Aussen-T/F 701 11-01-2022 10:20:00 -0.3 C 96 % -0.86 C
702 11-01-2022 10:25:00 -0.3 C 96 % -0.86 C
703 11-01-2022 10:30:00 -0.2 C 96 % -0.76 C
704 11-01-2022 10:35:00 -0.2 C 96 % -0.76 C
705 11-01-2022 10:40:00 -0.2 C 96 % -0.76 C
706 11-01-2022 10:45:00 -0.2 C 96 % -0.76 C
707 11-01-2022 10:50:00 -0.2 C 96 % -0.76 C
708 11-01-2022 10:55:00 -0.2 C 96 % -0.76 C
709 11-01-2022 11:00:00 -0.2 C 96 % -0.76 C
710 11-01-2022 11:05:00 -0.2 C 96 % -0.76 C
711 11-01-2022 11:10:00 -0.2 C 96 % -0.76 C
712 11-01-2022 11:15:00 -0.2 C 96 % -0.76 C
713 11-01-2022 11:20:00 -0.2 C 96 % -0.76 C
714 11-01-2022 11:25:00 -0.3 C 96 % -0.86 C
715 11-01-2022 11:30:00 -0.2 C 96 % -0.76 C
716 11-01-2022 11:35:00 -0.2 C 96 % -0.76 C
717 11-01-2022 11:40:00 -0.2 C 96 % -0.76 C
718 11-01-2022 11:45:00 -0.2 C 96 % -0.76 C
719 11-01-2022 11:50:00 -0.1 C 96 % -0.66 C
720 11-01-2022 11:55:00 -0.1 C 96 % -0.66 C
721 11-01-2022 12:00:00 -0.1 C 96 % -0.66 C
722 11-01-2022 12:05:00 -0.1 C 96 % -0.66 C
723 11-01-2022 12:10:00 -0.1 C 96 % -0.66 C
724 11-01-2022 12:15:00 -0.1 C 96 % -0.66 C
725 11-01-2022 12:20:00 0 C 96 % -0.56 C
Sensor: Nr:Datum:Temp:Feuchte:Taupunkt:
Aussen-T/F 726 11-01-2022 12:25:00 -0.1 C 96 % -0.66 C
727 11-01-2022 12:30:00 0 C 96 % -0.56 C
728 11-01-2022 12:35:00 0.1 C 96 % -0.46 C
729 11-01-2022 12:40:00 0.2 C 96 % -0.36 C
730 11-01-2022 12:45:00 0.2 C 96 % -0.36 C
731 11-01-2022 12:50:00 0.2 C 96 % -0.36 C
732 11-01-2022 12:55:00 0.3 C 96 % -0.26 C
733 11-01-2022 13:00:00 0.2 C 96 % -0.36 C
734 11-01-2022 13:05:00 0.2 C 96 % -0.36 C
735 11-01-2022 13:10:00 0.2 C 96 % -0.36 C
736 11-01-2022 13:15:00 0.3 C 96 % -0.26 C
737 11-01-2022 13:20:00 0.3 C 96 % -0.26 C
738 11-01-2022 13:25:00 0.3 C 96 % -0.26 C
739 11-01-2022 13:30:00 0.3 C 96 % -0.26 C
740 11-01-2022 13:35:00 0.3 C 96 % -0.26 C
741 11-01-2022 13:40:00 0.3 C 96 % -0.26 C
742 11-01-2022 13:45:00 0.3 C 96 % -0.26 C
743 11-01-2022 13:50:00 0.3 C 96 % -0.26 C
744 11-01-2022 13:55:00 0.4 C 96 % -0.16 C
745 11-01-2022 14:00:00 0.4 C 96 % -0.16 C
746 11-01-2022 14:05:00 0.5 C 96 % -0.06 C
747 11-01-2022 14:10:00 0.5 C 96 % -0.06 C
748 11-01-2022 14:15:00 0.4 C 96 % -0.16 C
749 11-01-2022 14:20:00 0.4 C 96 % -0.16 C
750 11-01-2022 14:25:00 0.4 C 96 % -0.16 C
Sensor: Nr:Datum:Temp:Feuchte:Taupunkt:
Aussen-T/F 751 11-01-2022 14:30:00 0.5 C 96 % -0.06 C
752 11-01-2022 14:35:00 0.4 C 96 % -0.16 C
753 11-01-2022 14:40:00 0.4 C 96 % -0.16 C
754 11-01-2022 14:45:00 0.4 C 96 % -0.16 C
755 11-01-2022 14:50:00 0.4 C 96 % -0.16 C
756 11-01-2022 14:55:00 0.4 C 96 % -0.16 C
757 11-01-2022 15:00:00 0.4 C 96 % -0.16 C
758 11-01-2022 15:05:00 0.4 C 96 % -0.16 C
759 11-01-2022 15:10:00 0.4 C 96 % -0.16 C
760 11-01-2022 15:15:00 0.5 C 96 % -0.06 C
761 11-01-2022 15:20:00 0.5 C 96 % -0.06 C
762 11-01-2022 15:25:00 0.5 C 96 % -0.06 C
763 11-01-2022 15:30:00 0.4 C 96 % -0.16 C
764 11-01-2022 15:35:00 0.4 C 96 % -0.16 C
765 11-01-2022 15:40:00 0.4 C 96 % -0.16 C
766 11-01-2022 15:45:00 0.4 C 96 % -0.16 C
767 11-01-2022 15:50:00 0.4 C 96 % -0.16 C
768 11-01-2022 15:55:00 0.4 C 96 % -0.16 C
769 11-01-2022 16:00:00 0.4 C 96 % -0.16 C
770 11-01-2022 16:05:00 0.4 C 96 % -0.16 C
771 11-01-2022 16:10:00 0.4 C 96 % -0.16 C
772 11-01-2022 16:15:00 0.4 C 96 % -0.16 C
773 11-01-2022 16:20:00 0.4 C 96 % -0.16 C
774 11-01-2022 16:25:00 0.4 C 96 % -0.16 C
775 11-01-2022 16:30:00 0.4 C 96 % -0.16 C
Sensor: Nr:Datum:Temp:Feuchte:Taupunkt:
Aussen-T/F 776 11-01-2022 16:35:00 0.4 C 96 % -0.16 C
777 11-01-2022 16:40:00 0.4 C 96 % -0.16 C
778 11-01-2022 16:45:00 0.4 C 96 % -0.16 C
779 11-01-2022 16:50:00 0.4 C 96 % -0.16 C
780 11-01-2022 16:55:00 0.3 C 96 % -0.26 C
781 11-01-2022 17:00:00 0.3 C 96 % -0.26 C
782 11-01-2022 17:05:00 0.4 C 96 % -0.16 C
783 11-01-2022 17:10:00 0.3 C 96 % -0.26 C
784 11-01-2022 17:15:00 0.3 C 96 % -0.26 C
785 11-01-2022 17:20:00 0.3 C 96 % -0.26 C
786 11-01-2022 17:25:00 0.3 C 96 % -0.26 C
787 11-01-2022 17:30:00 0.2 C 96 % -0.36 C
788 11-01-2022 17:35:00 0.2 C 96 % -0.36 C
789 11-01-2022 17:40:00 0.2 C 96 % -0.36 C
790 11-01-2022 17:45:00 0.2 C 96 % -0.36 C
791 11-01-2022 17:50:00 0.2 C 96 % -0.36 C
792 11-01-2022 17:55:00 0.2 C 96 % -0.36 C
793 11-01-2022 18:00:00 0.2 C 96 % -0.36 C
794 11-01-2022 18:05:00 0.2 C 96 % -0.36 C
795 11-01-2022 18:10:00 0.2 C 96 % -0.36 C
796 11-01-2022 18:15:00 0.2 C 96 % -0.36 C
797 11-01-2022 18:20:00 0.1 C 96 % -0.46 C
798 11-01-2022 18:25:00 0.1 C 96 % -0.46 C
799 11-01-2022 18:30:00 0 C 96 % -0.56 C
800 11-01-2022 18:35:00 -0.1 C 96 % -0.66 C
Sensor: Nr:Datum:Temp:Feuchte:Taupunkt:
Aussen-T/F 801 11-01-2022 18:40:00 -0.1 C 96 % -0.66 C
802 11-01-2022 18:45:00 -0.1 C 96 % -0.66 C
803 11-01-2022 18:50:00 -0.1 C 96 % -0.66 C
804 11-01-2022 18:55:00 -0.1 C 96 % -0.66 C
805 11-01-2022 19:00:00 -0.1 C 96 % -0.66 C
806 11-01-2022 19:05:00 -0.1 C 96 % -0.66 C
807 11-01-2022 19:10:00 -0.1 C 96 % -0.66 C
808 11-01-2022 19:15:00 -0.1 C 96 % -0.66 C
809 11-01-2022 19:20:00 -0.2 C 96 % -0.76 C
810 11-01-2022 19:25:00 -0.2 C 96 % -0.76 C
811 11-01-2022 19:30:00 -0.2 C 96 % -0.76 C
812 11-01-2022 19:35:00 -0.2 C 96 % -0.76 C
813 11-01-2022 19:40:00 -0.2 C 96 % -0.76 C
814 11-01-2022 19:45:00 -0.2 C 96 % -0.76 C
815 11-01-2022 19:50:00 -0.2 C 96 % -0.76 C
816 11-01-2022 19:55:00 -0.2 C 96 % -0.76 C
817 11-01-2022 20:00:00 -0.2 C 96 % -0.76 C
818 11-01-2022 20:05:00 -0.3 C 96 % -0.86 C
819 11-01-2022 20:10:00 -0.3 C 96 % -0.86 C
820 11-01-2022 20:15:00 -0.4 C 96 % -0.96 C
821 11-01-2022 20:20:00 -0.4 C 96 % -0.96 C
822 11-01-2022 20:25:00 -0.4 C 96 % -0.96 C
823 11-01-2022 20:30:00 -0.4 C 96 % -0.96 C
824 11-01-2022 20:35:00 -0.5 C 96 % -1.06 C
825 11-01-2022 20:40:00 -0.5 C 96 % -1.06 C
Sensor: Nr:Datum:Temp:Feuchte:Taupunkt:
Aussen-T/F 826 11-01-2022 20:45:00 -0.6 C 96 % -1.16 C
827 11-01-2022 20:50:00 -0.6 C 96 % -1.16 C
828 11-01-2022 20:55:00 -0.6 C 96 % -1.16 C
829 11-01-2022 21:00:00 -0.6 C 96 % -1.16 C
830 11-01-2022 21:05:00 -0.7 C 96 % -1.26 C
831 11-01-2022 21:10:00 -0.7 C 96 % -1.26 C
832 11-01-2022 21:15:00 -0.7 C 96 % -1.26 C
833 11-01-2022 21:20:00 -0.7 C 96 % -1.26 C
834 11-01-2022 21:25:00 -0.7 C 96 % -1.26 C
835 11-01-2022 21:30:00 -0.7 C 96 % -1.26 C
836 11-01-2022 21:35:00 -0.8 C 96 % -1.36 C
837 11-01-2022 21:40:00 -0.8 C 96 % -1.36 C
838 11-01-2022 21:45:00 -0.9 C 96 % -1.46 C
839 11-01-2022 21:50:00 -0.9 C 96 % -1.46 C
840 11-01-2022 21:55:00 -0.9 C 96 % -1.46 C
841 11-01-2022 22:00:00 -0.9 C 96 % -1.46 C
842 11-01-2022 22:05:00 -0.9 C 97 % -1.32 C
843 11-01-2022 22:10:00 -0.9 C 97 % -1.32 C
844 11-01-2022 22:15:00 -0.9 C 97 % -1.32 C
845 11-01-2022 22:20:00 -0.9 C 97 % -1.32 C
846 11-01-2022 22:25:00 -0.9 C 97 % -1.32 C
847 11-01-2022 22:30:00 -0.8 C 97 % -1.22 C
848 11-01-2022 22:35:00 -0.8 C 97 % -1.22 C
849 11-01-2022 22:40:00 -0.8 C 96 % -1.36 C
850 11-01-2022 22:45:00 -0.8 C 97 % -1.22 C
Sensor: Nr:Datum:Temp:Feuchte:Taupunkt:
Aussen-T/F 851 11-01-2022 22:50:00 -0.8 C 97 % -1.22 C
852 11-01-2022 22:55:00 -0.8 C 97 % -1.22 C
853 11-01-2022 23:00:00 -0.9 C 97 % -1.32 C
854 11-01-2022 23:05:00 -0.9 C 97 % -1.32 C
855 11-01-2022 23:10:00 -0.9 C 97 % -1.32 C
856 11-01-2022 23:15:00 -1 C 97 % -1.41 C
857 11-01-2022 23:20:00 -1 C 96 % -1.56 C
858 11-01-2022 23:25:00 -1.1 C 96 % -1.66 C
859 11-01-2022 23:30:00 -1.1 C 96 % -1.66 C
860 11-01-2022 23:35:00 -1.1 C 96 % -1.66 C
861 11-01-2022 23:40:00 -1.1 C 96 % -1.66 C
862 11-01-2022 23:45:00 -1.1 C 96 % -1.66 C
863 11-01-2022 23:50:00 -1.1 C 97 % -1.51 C
864 11-01-2022 23:55:00 -1.1 C 97 % -1.51 C
865 12-01-2022 00:00:00 -1.2 C 97 % -1.61 C
866 12-01-2022 00:05:00 -1.2 C 97 % -1.61 C
867 12-01-2022 00:10:00 -1.2 C 97 % -1.61 C
868 12-01-2022 00:15:00 -1.2 C 97 % -1.61 C
869 12-01-2022 00:20:00 -1.3 C 97 % -1.71 C
870 12-01-2022 00:25:00 -1.3 C 97 % -1.71 C
871 12-01-2022 00:30:00 -1.3 C 97 % -1.71 C
872 12-01-2022 00:35:00 -1.3 C 97 % -1.71 C
873 12-01-2022 00:40:00 -1.4 C 96 % -1.95 C
874 12-01-2022 00:45:00 -1.4 C 96 % -1.95 C
875 12-01-2022 00:50:00 -1.4 C 97 % -1.81 C
Sensor: Nr:Datum:Temp:Feuchte:Taupunkt:
Aussen-T/F 876 12-01-2022 00:55:00 -1.4 C 97 % -1.81 C
877 12-01-2022 01:00:00 -1.5 C 97 % -1.91 C
878 12-01-2022 01:05:00 -1.5 C 97 % -1.91 C
879 12-01-2022 01:10:00 -1.4 C 97 % -1.81 C
880 12-01-2022 01:15:00 -1.6 C 97 % -2.01 C
881 12-01-2022 01:20:00 -1.6 C 97 % -2.01 C
882 12-01-2022 01:25:00 -1.6 C 96 % -2.15 C
883 12-01-2022 01:30:00 -1.7 C 96 % -2.25 C
884 12-01-2022 01:35:00 -1.7 C 96 % -2.25 C
885 12-01-2022 01:40:00 -1.7 C 96 % -2.25 C
886 12-01-2022 01:45:00 -1.7 C 96 % -2.25 C
887 12-01-2022 01:50:00 -1.7 C 96 % -2.25 C
888 12-01-2022 01:55:00 -1.7 C 97 % -2.11 C
889 12-01-2022 02:00:00 -1.8 C 97 % -2.21 C
890 12-01-2022 02:05:00 -1.8 C 97 % -2.21 C
891 12-01-2022 02:10:00 -1.8 C 97 % -2.21 C
892 12-01-2022 02:15:00 -1.8 C 97 % -2.21 C
893 12-01-2022 02:20:00 -1.8 C 97 % -2.21 C
894 12-01-2022 02:25:00 -1.8 C 97 % -2.21 C
895 12-01-2022 02:30:00 -1.8 C 97 % -2.21 C
896 12-01-2022 02:35:00 -1.8 C 97 % -2.21 C
897 12-01-2022 02:40:00 -1.8 C 97 % -2.21 C
898 12-01-2022 02:45:00 -1.8 C 97 % -2.21 C
899 12-01-2022 02:50:00 -1.8 C 97 % -2.21 C
900 12-01-2022 02:55:00 -1.9 C 96 % -2.45 C
Sensor: Nr:Datum:Temp:Feuchte:Taupunkt:
Aussen-T/F 901 12-01-2022 03:00:00 -2 C 97 % -2.41 C
902 12-01-2022 03:05:00 -2.1 C 96 % -2.65 C
903 12-01-2022 03:10:00 -2.1 C 96 % -2.65 C
904 12-01-2022 03:15:00 -2.2 C 96 % -2.75 C
905 12-01-2022 03:20:00 -2.2 C 96 % -2.75 C
906 12-01-2022 03:25:00 -2.1 C 96 % -2.65 C
907 12-01-2022 03:30:00 -2.1 C 96 % -2.65 C
908 12-01-2022 03:35:00 -1.9 C 96 % -2.45 C
909 12-01-2022 03:40:00 -1.9 C 96 % -2.45 C
910 12-01-2022 03:45:00 -2 C 96 % -2.55 C
911 12-01-2022 03:50:00 -2 C 96 % -2.55 C
912 12-01-2022 03:55:00 -1.9 C 96 % -2.45 C
913 12-01-2022 04:00:00 -1.9 C 96 % -2.45 C
914 12-01-2022 04:05:00 -1.9 C 96 % -2.45 C
915 12-01-2022 04:10:00 -1.8 C 97 % -2.21 C
916 12-01-2022 04:15:00 -1.8 C 97 % -2.21 C
917 12-01-2022 04:20:00 -1.7 C 97 % -2.11 C
918 12-01-2022 04:25:00 -1.7 C 96 % -2.25 C
919 12-01-2022 04:30:00 -1.7 C 96 % -2.25 C
920 12-01-2022 04:35:00 -1.6 C 96 % -2.15 C
921 12-01-2022 04:40:00 -1.6 C 96 % -2.15 C
922 12-01-2022 04:45:00 -1.6 C 97 % -2.01 C
923 12-01-2022 04:50:00 -1.5 C 97 % -1.91 C
924 12-01-2022 04:55:00 -1.5 C 97 % -1.91 C
925 12-01-2022 05:00:00 -1.4 C 97 % -1.81 C
Sensor: Nr:Datum:Temp:Feuchte:Taupunkt:
Aussen-T/F 926 12-01-2022 05:05:00 -1.4 C 97 % -1.81 C
927 12-01-2022 05:10:00 -1.4 C 97 % -1.81 C
928 12-01-2022 05:15:00 -1.4 C 97 % -1.81 C
929 12-01-2022 05:20:00 -1.5 C 97 % -1.91 C
930 12-01-2022 05:25:00 -1.6 C 97 % -2.01 C
931 12-01-2022 05:30:00 -1.6 C 97 % -2.01 C
932 12-01-2022 05:35:00 -1.6 C 97 % -2.01 C
933 12-01-2022 05:40:00 -1.6 C 97 % -2.01 C
934 12-01-2022 05:45:00 -1.6 C 97 % -2.01 C
935 12-01-2022 05:50:00 -1.6 C 97 % -2.01 C
936 12-01-2022 05:55:00 -1.6 C 97 % -2.01 C
937 12-01-2022 06:00:00 -1.6 C 97 % -2.01 C
938 12-01-2022 06:05:00 -1.6 C 97 % -2.01 C
939 12-01-2022 06:10:00 -1.6 C 97 % -2.01 C
940 12-01-2022 06:15:00 -1.6 C 97 % -2.01 C
941 12-01-2022 06:20:00 -1.6 C 97 % -2.01 C
942 12-01-2022 06:25:00 -1.7 C 97 % -2.11 C
943 12-01-2022 06:30:00 -1.7 C 96 % -2.25 C
944 12-01-2022 06:35:00 -1.7 C 96 % -2.25 C
945 12-01-2022 06:40:00 -1.7 C 96 % -2.25 C
946 12-01-2022 06:45:00 -1.7 C 96 % -2.25 C
947 12-01-2022 06:50:00 -1.7 C 96 % -2.25 C
948 12-01-2022 06:55:00 -1.7 C 96 % -2.25 C
949 12-01-2022 07:00:00 -1.7 C 96 % -2.25 C
950 12-01-2022 07:05:00 -1.7 C 96 % -2.25 C
Sensor: Nr:Datum:Temp:Feuchte:Taupunkt:
Aussen-T/F 951 12-01-2022 07:10:00 -1.7 C 96 % -2.25 C
952 12-01-2022 07:15:00 -1.7 C 97 % -2.11 C
953 12-01-2022 07:20:00 -1.7 C 96 % -2.25 C
954 12-01-2022 07:25:00 -1.7 C 96 % -2.25 C
955 12-01-2022 07:30:00 -1.7 C 96 % -2.25 C
956 12-01-2022 07:35:00 -1.7 C 96 % -2.25 C
957 12-01-2022 07:40:00 -1.7 C 96 % -2.25 C
958 12-01-2022 07:45:00 -1.7 C 96 % -2.25 C
959 12-01-2022 07:50:00 -1.7 C 96 % -2.25 C
960 12-01-2022 07:55:00 -1.7 C 96 % -2.25 C
961 12-01-2022 08:00:00 -1.7 C 96 % -2.25 C
962 12-01-2022 08:05:00 -1.6 C 96 % -2.15 C
963 12-01-2022 08:10:00 -1.6 C 96 % -2.15 C
964 12-01-2022 08:15:00 -1.6 C 96 % -2.15 C
965 12-01-2022 08:20:00 -1.6 C 96 % -2.15 C
966 12-01-2022 08:25:00 -1.6 C 96 % -2.15 C
967 12-01-2022 08:30:00 -1.6 C 96 % -2.15 C
968 12-01-2022 08:35:00 -1.6 C 96 % -2.15 C
969 12-01-2022 08:40:00 -1.7 C 96 % -2.25 C
970 12-01-2022 08:45:00 -1.7 C 96 % -2.25 C
971 12-01-2022 08:50:00 -1.7 C 96 % -2.25 C
972 12-01-2022 08:55:00 -1.7 C 96 % -2.25 C
973 12-01-2022 09:00:00 -1.8 C 96 % -2.35 C
974 12-01-2022 09:05:00 -1.8 C 96 % -2.35 C
975 12-01-2022 09:10:00 -1.8 C 96 % -2.35 C
Sensor: Nr:Datum:Temp:Feuchte:Taupunkt:
Aussen-T/F 976 12-01-2022 09:15:00 -1.7 C 96 % -2.25 C
977 12-01-2022 09:20:00 -1.7 C 96 % -2.25 C
978 12-01-2022 09:25:00 -1.6 C 97 % -2.01 C
979 12-01-2022 09:30:00 -1.4 C 96 % -1.95 C
980 12-01-2022 09:35:00 -1.3 C 96 % -1.85 C
981 12-01-2022 09:40:00 -1.2 C 97 % -1.61 C
982 12-01-2022 09:45:00 -1.1 C 97 % -1.51 C
983 12-01-2022 09:50:00 -1.1 C 97 % -1.51 C
984 12-01-2022 09:55:00 -1.1 C 96 % -1.66 C
985 12-01-2022 10:00:00 -1 C 97 % -1.41 C
986 12-01-2022 10:05:00 -0.9 C 97 % -1.32 C
987 12-01-2022 10:10:00 -0.8 C 96 % -1.36 C
988 12-01-2022 10:15:00 -0.7 C 96 % -1.26 C
989 12-01-2022 10:20:00 -0.6 C 97 % -1.02 C
990 12-01-2022 10:25:00 -0.6 C 97 % -1.02 C
991 12-01-2022 10:30:00 -0.6 C 96 % -1.16 C
992 12-01-2022 10:35:00 -0.5 C 96 % -1.06 C
993 12-01-2022 10:40:00 -0.4 C 96 % -0.96 C
994 12-01-2022 10:45:00 -0.4 C 96 % -0.96 C
995 12-01-2022 10:50:00 -0.3 C 96 % -0.86 C
996 12-01-2022 10:55:00 -0.3 C 96 % -0.86 C
997 12-01-2022 11:00:00 -0.2 C 96 % -0.76 C
998 12-01-2022 11:05:00 -0.1 C 96 % -0.66 C
999 12-01-2022 11:10:00 -0.1 C 96 % -0.66 C
1000 12-01-2022 11:15:00 0 C 96 % -0.56 C
Sensor: Nr:Datum:Temp:Feuchte:Taupunkt:
Aussen-T/F 1001 12-01-2022 11:20:00 0.1 C 96 % -0.46 C
1002 12-01-2022 11:25:00 0.2 C 96 % -0.36 C
1003 12-01-2022 11:30:00 0.3 C 95 % -0.4 C
1004 12-01-2022 11:35:00 0.3 C 95 % -0.4 C
1005 12-01-2022 11:40:00 0.4 C 95 % -0.31 C
1006 12-01-2022 11:45:00 0.5 C 94 % -0.35 C
1007 12-01-2022 11:50:00 0.6 C 94 % -0.25 C
1008 12-01-2022 11:55:00 0.7 C 94 % -0.15 C
1009 12-01-2022 12:00:00 0.8 C 94 % -0.05 C
1010 12-01-2022 12:05:00 0.9 C 94 % 0.05 C
1011 12-01-2022 12:10:00 1.1 C 94 % 0.24 C
1012 12-01-2022 12:15:00 1.2 C 94 % 0.34 C
1013 12-01-2022 12:20:00 1.3 C 94 % 0.44 C
1014 12-01-2022 12:25:00 1.4 C 94 % 0.54 C
1015 12-01-2022 12:30:00 1.5 C 94 % 0.64 C
1016 12-01-2022 12:35:00 1.6 C 93 % 0.59 C
1017 12-01-2022 12:40:00 1.7 C 93 % 0.69 C
1018 12-01-2022 12:45:00 1.8 C 93 % 0.79 C
1019 12-01-2022 12:50:00 1.9 C 93 % 0.89 C
1020 12-01-2022 12:55:00 1.9 C 93 % 0.89 C
1021 12-01-2022 13:00:00 2.1 C 93 % 1.09 C
1022 12-01-2022 13:05:00 2.1 C 93 % 1.09 C
1023 12-01-2022 13:10:00 2.1 C 92 % 0.94 C
1024 12-01-2022 13:15:00 2.1 C 92 % 0.94 C
1025 12-01-2022 13:20:00 2.2 C 92 % 1.04 C
Sensor: Nr:Datum:Temp:Feuchte:Taupunkt:
Aussen-T/F 1026 12-01-2022 13:25:00 2.2 C 92 % 1.04 C
1027 12-01-2022 13:30:00 2.2 C 92 % 1.04 C
1028 12-01-2022 13:35:00 2.3 C 92 % 1.14 C
1029 12-01-2022 13:40:00 2.4 C 92 % 1.24 C
1030 12-01-2022 13:45:00 2.4 C 92 % 1.24 C
1031 12-01-2022 13:50:00 2.5 C 92 % 1.34 C
1032 12-01-2022 13:55:00 2.6 C 92 % 1.43 C
1033 12-01-2022 14:00:00 2.6 C 91 % 1.28 C
1034 12-01-2022 14:05:00 2.7 C 92 % 1.53 C
1035 12-01-2022 14:10:00 2.7 C 92 % 1.53 C
1036 12-01-2022 14:15:00 2.8 C 92 % 1.63 C
1037 12-01-2022 14:20:00 2.8 C 91 % 1.48 C
1038 12-01-2022 14:25:00 2.8 C 91 % 1.48 C
1039 12-01-2022 14:30:00 2.8 C 91 % 1.48 C
1040 12-01-2022 14:35:00 2.8 C 91 % 1.48 C
1041 12-01-2022 14:40:00 2.8 C 91 % 1.48 C
1042 12-01-2022 14:45:00 2.9 C 92 % 1.73 C
1043 12-01-2022 14:50:00 2.9 C 92 % 1.73 C
1044 12-01-2022 14:55:00 2.9 C 92 % 1.73 C
1045 12-01-2022 15:00:00 2.9 C 92 % 1.73 C
1046 12-01-2022 15:05:00 2.9 C 92 % 1.73 C
1047 12-01-2022 15:10:00 2.9 C 92 % 1.73 C
1048 12-01-2022 15:15:00 2.9 C 92 % 1.73 C
1049 12-01-2022 15:20:00 2.9 C 92 % 1.73 C
1050 12-01-2022 15:25:00 2.9 C 92 % 1.73 C
Sensor: Nr:Datum:Temp:Feuchte:Taupunkt:
Aussen-T/F 1051 12-01-2022 15:30:00 2.9 C 92 % 1.73 C
1052 12-01-2022 15:35:00 2.9 C 92 % 1.73 C
1053 12-01-2022 15:40:00 2.8 C 92 % 1.63 C
1054 12-01-2022 15:45:00 2.8 C 92 % 1.63 C
1055 12-01-2022 15:50:00 2.8 C 92 % 1.63 C
1056 12-01-2022 15:55:00 2.8 C 92 % 1.63 C
1057 12-01-2022 16:00:00 2.8 C 93 % 1.78 C
1058 12-01-2022 16:05:00 2.8 C 93 % 1.78 C
1059 12-01-2022 16:10:00 2.8 C 93 % 1.78 C
1060 12-01-2022 16:15:00 2.8 C 93 % 1.78 C
1061 12-01-2022 16:20:00 2.8 C 93 % 1.78 C
1062 12-01-2022 16:25:00 2.8 C 93 % 1.78 C
1063 12-01-2022 16:30:00 2.8 C 93 % 1.78 C
1064 12-01-2022 16:35:00 2.7 C 93 % 1.68 C
1065 12-01-2022 16:40:00 2.6 C 93 % 1.59 C
1066 12-01-2022 16:45:00 2.6 C 93 % 1.59 C
1067 12-01-2022 16:50:00 2.4 C 92 % 1.24 C
1068 12-01-2022 16:55:00 2.4 C 93 % 1.39 C
1069 12-01-2022 17:00:00 2.3 C 93 % 1.29 C
1070 12-01-2022 17:05:00 2.3 C 93 % 1.29 C
1071 12-01-2022 17:10:00 2.3 C 93 % 1.29 C
1072 12-01-2022 17:15:00 2.3 C 93 % 1.29 C
1073 12-01-2022 17:20:00 2.3 C 93 % 1.29 C
1074 12-01-2022 17:25:00 2.3 C 93 % 1.29 C
1075 12-01-2022 17:30:00 2.3 C 93 % 1.29 C
Sensor: Nr:Datum:Temp:Feuchte:Taupunkt:
Aussen-T/F 1076 12-01-2022 17:35:00 2.3 C 93 % 1.29 C
1077 12-01-2022 17:40:00 2.3 C 93 % 1.29 C
1078 12-01-2022 17:45:00 2.3 C 94 % 1.44 C
1079 12-01-2022 17:50:00 2.3 C 94 % 1.44 C
1080 12-01-2022 17:55:00 2.3 C 94 % 1.44 C
1081 12-01-2022 18:00:00 2.3 C 94 % 1.44 C
1082 12-01-2022 18:05:00 2.3 C 94 % 1.44 C
1083 12-01-2022 18:10:00 2.3 C 94 % 1.44 C
1084 12-01-2022 18:15:00 2.3 C 94 % 1.44 C
1085 12-01-2022 18:20:00 2.3 C 94 % 1.44 C
1086 12-01-2022 18:25:00 2.2 C 94 % 1.34 C
1087 12-01-2022 18:30:00 2.2 C 94 % 1.34 C
1088 12-01-2022 18:35:00 2.2 C 94 % 1.34 C
1089 12-01-2022 18:40:00 2.2 C 94 % 1.34 C
1090 12-01-2022 18:45:00 2.2 C 94 % 1.34 C
1091 12-01-2022 18:50:00 2.2 C 94 % 1.34 C
1092 12-01-2022 18:55:00 2.2 C 94 % 1.34 C
1093 12-01-2022 19:00:00 2.2 C 94 % 1.34 C
1094 12-01-2022 19:05:00 2.2 C 94 % 1.34 C
1095 12-01-2022 19:10:00 2.2 C 94 % 1.34 C
1096 12-01-2022 19:15:00 2.2 C 94 % 1.34 C
1097 12-01-2022 19:20:00 2.2 C 94 % 1.34 C
1098 12-01-2022 19:25:00 2.3 C 94 % 1.44 C
1099 12-01-2022 19:30:00 2.2 C 94 % 1.34 C
1100 12-01-2022 19:35:00 2.3 C 94 % 1.44 C
Sensor: Nr:Datum:Temp:Feuchte:Taupunkt:
Aussen-T/F 1101 12-01-2022 19:40:00 2.3 C 94 % 1.44 C
1102 12-01-2022 19:45:00 2.3 C 94 % 1.44 C
1103 12-01-2022 19:50:00 2.3 C 94 % 1.44 C
1104 12-01-2022 19:55:00 2.3 C 94 % 1.44 C
1105 12-01-2022 20:00:00 2.3 C 94 % 1.44 C
1106 12-01-2022 20:05:00 2.3 C 94 % 1.44 C
1107 12-01-2022 20:10:00 2.3 C 94 % 1.44 C
1108 12-01-2022 20:15:00 2.3 C 94 % 1.44 C
1109 12-01-2022 20:20:00 2.4 C 94 % 1.54 C
1110 12-01-2022 20:25:00 2.4 C 94 % 1.54 C
1111 12-01-2022 20:30:00 2.4 C 94 % 1.54 C
1112 12-01-2022 20:35:00 2.4 C 94 % 1.54 C
1113 12-01-2022 20:40:00 2.4 C 94 % 1.54 C
1114 12-01-2022 20:45:00 2.4 C 94 % 1.54 C
1115 12-01-2022 20:50:00 2.4 C 94 % 1.54 C
1116 12-01-2022 20:55:00 2.4 C 95 % 1.68 C
1117 12-01-2022 21:00:00 2.4 C 95 % 1.68 C
1118 12-01-2022 21:05:00 2.4 C 95 % 1.68 C
1119 12-01-2022 21:10:00 2.5 C 95 % 1.78 C
1120 12-01-2022 21:15:00 2.4 C 95 % 1.68 C
1121 12-01-2022 21:20:00 2.5 C 95 % 1.78 C
1122 12-01-2022 21:25:00 2.5 C 95 % 1.78 C
1123 12-01-2022 21:30:00 2.4 C 95 % 1.68 C
1124 12-01-2022 21:35:00 2.4 C 95 % 1.68 C
1125 12-01-2022 21:40:00 2.4 C 95 % 1.68 C
Sensor: Nr:Datum:Temp:Feuchte:Taupunkt:
Aussen-T/F 1126 12-01-2022 21:45:00 2.4 C 95 % 1.68 C
1127 12-01-2022 21:50:00 2.4 C 95 % 1.68 C
1128 12-01-2022 21:55:00 2.5 C 95 % 1.78 C
1129 12-01-2022 22:00:00 2.5 C 95 % 1.78 C
1130 12-01-2022 22:05:00 2.6 C 95 % 1.88 C
1131 12-01-2022 22:10:00 2.6 C 95 % 1.88 C
1132 12-01-2022 22:15:00 2.6 C 95 % 1.88 C
1133 12-01-2022 22:20:00 2.6 C 95 % 1.88 C
1134 12-01-2022 22:25:00 2.6 C 95 % 1.88 C
1135 12-01-2022 22:30:00 2.6 C 95 % 1.88 C
1136 12-01-2022 22:35:00 2.6 C 95 % 1.88 C
1137 12-01-2022 22:40:00 2.6 C 95 % 1.88 C
1138 12-01-2022 22:45:00 2.6 C 95 % 1.88 C
1139 12-01-2022 22:50:00 2.6 C 95 % 1.88 C
1140 12-01-2022 22:55:00 2.6 C 95 % 1.88 C
1141 12-01-2022 23:00:00 2.5 C 95 % 1.78 C
1142 12-01-2022 23:05:00 2.5 C 95 % 1.78 C
1143 12-01-2022 23:10:00 2.5 C 95 % 1.78 C
1144 12-01-2022 23:15:00 2.5 C 94 % 1.63 C
1145 12-01-2022 23:20:00 2.5 C 94 % 1.63 C
1146 12-01-2022 23:25:00 2.5 C 94 % 1.63 C
1147 12-01-2022 23:30:00 2.5 C 94 % 1.63 C
1148 12-01-2022 23:35:00 2.6 C 94 % 1.73 C
1149 12-01-2022 23:40:00 2.6 C 94 % 1.73 C
1150 12-01-2022 23:45:00 2.6 C 94 % 1.73 C
Sensor: Nr:Datum:Temp:Feuchte:Taupunkt:
Aussen-T/F 1151 12-01-2022 23:50:00 2.6 C 94 % 1.73 C
1152 12-01-2022 23:55:00 2.6 C 94 % 1.73 C
1153 13-01-2022 00:00:00 2.5 C 94 % 1.63 C
1154 13-01-2022 00:05:00 2.5 C 94 % 1.63 C
1155 13-01-2022 00:10:00 2.5 C 94 % 1.63 C
1156 13-01-2022 00:15:00 2.5 C 94 % 1.63 C
1157 13-01-2022 00:20:00 2.5 C 94 % 1.63 C
1158 13-01-2022 00:25:00 2.5 C 94 % 1.63 C
1159 13-01-2022 00:30:00 2.5 C 94 % 1.63 C
1160 13-01-2022 00:35:00 2.5 C 94 % 1.63 C
1161 13-01-2022 00:40:00 2.4 C 94 % 1.54 C
1162 13-01-2022 00:45:00 2.4 C 94 % 1.54 C
1163 13-01-2022 00:50:00 2.4 C 94 % 1.54 C
1164 13-01-2022 00:55:00 2.4 C 94 % 1.54 C
1165 13-01-2022 01:00:00 2.4 C 94 % 1.54 C
1166 13-01-2022 01:05:00 2.4 C 94 % 1.54 C
1167 13-01-2022 01:10:00 2.4 C 94 % 1.54 C
1168 13-01-2022 01:15:00 2.4 C 94 % 1.54 C
1169 13-01-2022 01:20:00 2.4 C 94 % 1.54 C
1170 13-01-2022 01:25:00 2.4 C 94 % 1.54 C
1171 13-01-2022 01:30:00 2.3 C 94 % 1.44 C
1172 13-01-2022 01:35:00 2.3 C 94 % 1.44 C
1173 13-01-2022 01:40:00 2.3 C 94 % 1.44 C
1174 13-01-2022 01:45:00 2.3 C 94 % 1.44 C
1175 13-01-2022 01:50:00 2.3 C 93 % 1.29 C
Sensor: Nr:Datum:Temp:Feuchte:Taupunkt:
Aussen-T/F 1176 13-01-2022 01:55:00 2.3 C 93 % 1.29 C
1177 13-01-2022 02:00:00 2.3 C 93 % 1.29 C
1178 13-01-2022 02:05:00 2.2 C 93 % 1.19 C
1179 13-01-2022 02:10:00 2.2 C 93 % 1.19 C
1180 13-01-2022 02:15:00 2.2 C 93 % 1.19 C
1181 13-01-2022 02:20:00 2.2 C 93 % 1.19 C
1182 13-01-2022 02:25:00 2.2 C 93 % 1.19 C
1183 13-01-2022 02:30:00 2.2 C 93 % 1.19 C
1184 13-01-2022 02:35:00 2.2 C 93 % 1.19 C
1185 13-01-2022 02:40:00 2.2 C 93 % 1.19 C
1186 13-01-2022 02:45:00 2.2 C 93 % 1.19 C
1187 13-01-2022 02:50:00 2.2 C 93 % 1.19 C
1188 13-01-2022 02:55:00 2.1 C 93 % 1.09 C
1189 13-01-2022 03:00:00 2.1 C 93 % 1.09 C
1190 13-01-2022 03:05:00 2.1 C 93 % 1.09 C
1191 13-01-2022 03:10:00 2.1 C 93 % 1.09 C
1192 13-01-2022 03:15:00 2.1 C 94 % 1.24 C
1193 13-01-2022 03:20:00 2.1 C 94 % 1.24 C
1194 13-01-2022 03:25:00 2.1 C 94 % 1.24 C
1195 13-01-2022 03:30:00 2.1 C 94 % 1.24 C
1196 13-01-2022 03:35:00 2.1 C 94 % 1.24 C
1197 13-01-2022 03:40:00 2.1 C 94 % 1.24 C
1198 13-01-2022 03:45:00 2.1 C 94 % 1.24 C
1199 13-01-2022 03:50:00 2.1 C 94 % 1.24 C
1200 13-01-2022 03:55:00 2.1 C 94 % 1.24 C
Sensor: Nr:Datum:Temp:Feuchte:Taupunkt:
Aussen-T/F 1201 13-01-2022 04:00:00 2.1 C 94 % 1.24 C
1202 13-01-2022 04:05:00 2.1 C 94 % 1.24 C
1203 13-01-2022 04:10:00 2.1 C 94 % 1.24 C
1204 13-01-2022 04:15:00 2.1 C 94 % 1.24 C
1205 13-01-2022 04:20:00 2.1 C 94 % 1.24 C
1206 13-01-2022 04:25:00 2.1 C 94 % 1.24 C
1207 13-01-2022 04:30:00 2.1 C 94 % 1.24 C
1208 13-01-2022 04:35:00 2.1 C 94 % 1.24 C
1209 13-01-2022 04:40:00 2 C 94 % 1.14 C
1210 13-01-2022 04:45:00 2 C 94 % 1.14 C
1211 13-01-2022 04:50:00 2 C 94 % 1.14 C
1212 13-01-2022 04:55:00 1.9 C 94 % 1.04 C
1213 13-01-2022 05:00:00 1.9 C 94 % 1.04 C
1214 13-01-2022 05:05:00 1.9 C 94 % 1.04 C
1215 13-01-2022 05:10:00 1.9 C 94 % 1.04 C
1216 13-01-2022 05:15:00 1.9 C 94 % 1.04 C
1217 13-01-2022 05:20:00 1.9 C 94 % 1.04 C
1218 13-01-2022 05:25:00 1.9 C 94 % 1.04 C
1219 13-01-2022 05:30:00 1.9 C 94 % 1.04 C
1220 13-01-2022 05:35:00 1.9 C 94 % 1.04 C
1221 13-01-2022 05:40:00 1.9 C 94 % 1.04 C
1222 13-01-2022 05:45:00 1.9 C 94 % 1.04 C
1223 13-01-2022 05:50:00 1.9 C 94 % 1.04 C
1224 13-01-2022 05:55:00 1.8 C 94 % 0.94 C
1225 13-01-2022 06:00:00 1.8 C 94 % 0.94 C
Sensor: Nr:Datum:Temp:Feuchte:Taupunkt:
Aussen-T/F 1226 13-01-2022 06:05:00 1.8 C 94 % 0.94 C
1227 13-01-2022 06:10:00 1.8 C 94 % 0.94 C
1228 13-01-2022 06:15:00 1.8 C 94 % 0.94 C
1229 13-01-2022 06:20:00 1.8 C 94 % 0.94 C
1230 13-01-2022 06:25:00 1.8 C 94 % 0.94 C
1231 13-01-2022 06:30:00 1.8 C 94 % 0.94 C
1232 13-01-2022 06:35:00 1.8 C 94 % 0.94 C
1233 13-01-2022 06:40:00 1.8 C 94 % 0.94 C
1234 13-01-2022 06:45:00 1.8 C 94 % 0.94 C
1235 13-01-2022 06:50:00 1.8 C 94 % 0.94 C
1236 13-01-2022 06:55:00 1.8 C 94 % 0.94 C
1237 13-01-2022 07:00:00 1.8 C 94 % 0.94 C
1238 13-01-2022 07:05:00 1.8 C 95 % 1.09 C
1239 13-01-2022 07:10:00 1.8 C 94 % 0.94 C
1240 13-01-2022 07:15:00 1.8 C 94 % 0.94 C
1241 13-01-2022 07:20:00 1.8 C 94 % 0.94 C
1242 13-01-2022 07:25:00 1.7 C 94 % 0.84 C
1243 13-01-2022 07:30:00 1.7 C 94 % 0.84 C
1244 13-01-2022 07:35:00 1.7 C 94 % 0.84 C
1245 13-01-2022 07:40:00 1.7 C 94 % 0.84 C
1246 13-01-2022 07:45:00 1.7 C 94 % 0.84 C
1247 13-01-2022 07:50:00 1.7 C 94 % 0.84 C
1248 13-01-2022 07:55:00 1.7 C 94 % 0.84 C
1249 13-01-2022 08:00:00 1.6 C 94 % 0.74 C
1250 13-01-2022 08:05:00 1.6 C 94 % 0.74 C
Sensor: Nr:Datum:Temp:Feuchte:Taupunkt:
Aussen-T/F 1251 13-01-2022 08:10:00 1.6 C 94 % 0.74 C
1252 13-01-2022 08:15:00 1.5 C 94 % 0.64 C
1253 13-01-2022 08:20:00 1.5 C 94 % 0.64 C
1254 13-01-2022 08:25:00 1.5 C 94 % 0.64 C
1255 13-01-2022 08:30:00 1.4 C 94 % 0.54 C
1256 13-01-2022 08:35:00 1.4 C 94 % 0.54 C
1257 13-01-2022 08:40:00 1.4 C 94 % 0.54 C
1258 13-01-2022 08:45:00 1.4 C 94 % 0.54 C
1259 13-01-2022 08:50:00 1.3 C 94 % 0.44 C
1260 13-01-2022 08:55:00 1.3 C 94 % 0.44 C
1261 13-01-2022 09:00:00 1.3 C 94 % 0.44 C
1262 13-01-2022 09:05:00 1.4 C 94 % 0.54 C
1263 13-01-2022 09:10:00 1.4 C 95 % 0.69 C
1264 13-01-2022 09:15:00 1.4 C 95 % 0.69 C
1265 13-01-2022 09:20:00 1.4 C 95 % 0.69 C
1266 13-01-2022 09:25:00 1.4 C 95 % 0.69 C
1267 13-01-2022 09:30:00 1.4 C 95 % 0.69 C
1268 13-01-2022 09:35:00 1.4 C 95 % 0.69 C
1269 13-01-2022 09:40:00 1.4 C 95 % 0.69 C
1270 13-01-2022 09:45:00 1.4 C 95 % 0.69 C
1271 13-01-2022 09:50:00 1.4 C 95 % 0.69 C
1272 13-01-2022 09:55:00 1.4 C 94 % 0.54 C
1273 13-01-2022 10:00:00 1.4 C 94 % 0.54 C
1274 13-01-2022 10:05:00 1.4 C 94 % 0.54 C
1275 13-01-2022 10:10:00 1.4 C 94 % 0.54 C
Sensor: Nr:Datum:Temp:Feuchte:Taupunkt:
Aussen-T/F 1276 13-01-2022 10:15:00 1.4 C 94 % 0.54 C
1277 13-01-2022 10:20:00 1.5 C 94 % 0.64 C
1278 13-01-2022 10:25:00 1.6 C 94 % 0.74 C
1279 13-01-2022 10:30:00 1.5 C 94 % 0.64 C
1280 13-01-2022 10:35:00 1.5 C 94 % 0.64 C
1281 13-01-2022 10:40:00 1.5 C 94 % 0.64 C
1282 13-01-2022 10:45:00 1.5 C 94 % 0.64 C
1283 13-01-2022 10:50:00 1.5 C 94 % 0.64 C
1284 13-01-2022 10:55:00 1.6 C 94 % 0.74 C
1285 13-01-2022 11:00:00 1.6 C 94 % 0.74 C
1286 13-01-2022 11:05:00 1.6 C 94 % 0.74 C
1287 13-01-2022 11:10:00 1.7 C 94 % 0.84 C
1288 13-01-2022 11:15:00 1.7 C 94 % 0.84 C
1289 13-01-2022 11:20:00 1.7 C 94 % 0.84 C
1290 13-01-2022 11:25:00 1.7 C 94 % 0.84 C
1291 13-01-2022 11:30:00 1.7 C 94 % 0.84 C
1292 13-01-2022 11:35:00 1.7 C 94 % 0.84 C
1293 13-01-2022 11:40:00 1.8 C 94 % 0.94 C
1294 13-01-2022 11:45:00 1.8 C 94 % 0.94 C
1295 13-01-2022 11:50:00 1.9 C 94 % 1.04 C
1296 13-01-2022 11:55:00 2 C 94 % 1.14 C
1297 13-01-2022 12:00:00 2.1 C 93 % 1.09 C
1298 13-01-2022 12:05:00 2.1 C 93 % 1.09 C
1299 13-01-2022 12:10:00 2.1 C 93 % 1.09 C
1300 13-01-2022 12:15:00 2.2 C 93 % 1.19 C
Sensor: Nr:Datum:Temp:Feuchte:Taupunkt:
Aussen-T/F 1301 13-01-2022 12:20:00 2.3 C 93 % 1.29 C
1302 13-01-2022 12:25:00 2.3 C 93 % 1.29 C
1303 13-01-2022 12:30:00 2.3 C 93 % 1.29 C
1304 13-01-2022 12:35:00 2.4 C 93 % 1.39 C
1305 13-01-2022 12:40:00 2.4 C 93 % 1.39 C
1306 13-01-2022 12:45:00 2.5 C 93 % 1.49 C
1307 13-01-2022 12:50:00 2.6 C 92 % 1.43 C
1308 13-01-2022 12:55:00 2.6 C 92 % 1.43 C
1309 13-01-2022 13:00:00 2.6 C 92 % 1.43 C
1310 13-01-2022 13:05:00 2.7 C 92 % 1.53 C
1311 13-01-2022 13:10:00 2.7 C 92 % 1.53 C
1312 13-01-2022 13:15:00 2.8 C 92 % 1.63 C
1313 13-01-2022 13:20:00 2.8 C 92 % 1.63 C
1314 13-01-2022 13:25:00 2.8 C 91 % 1.48 C
1315 13-01-2022 13:30:00 2.8 C 91 % 1.48 C
1316 13-01-2022 13:35:00 2.8 C 91 % 1.48 C
1317 13-01-2022 13:40:00 2.7 C 91 % 1.38 C
1318 13-01-2022 13:45:00 2.7 C 91 % 1.38 C
1319 13-01-2022 13:50:00 2.6 C 92 % 1.43 C
1320 13-01-2022 13:55:00 2.6 C 91 % 1.28 C
1321 13-01-2022 14:00:00 2.6 C 92 % 1.43 C
1322 13-01-2022 14:05:00 2.6 C 92 % 1.43 C
1323 13-01-2022 14:10:00 2.6 C 92 % 1.43 C
1324 13-01-2022 14:15:00 2.6 C 92 % 1.43 C
1325 13-01-2022 14:20:00 2.5 C 92 % 1.34 C
Sensor: Nr:Datum:Temp:Feuchte:Taupunkt:
Aussen-T/F 1326 13-01-2022 14:25:00 2.4 C 92 % 1.24 C
1327 13-01-2022 14:30:00 2.4 C 92 % 1.24 C
1328 13-01-2022 14:35:00 2.4 C 92 % 1.24 C
1329 13-01-2022 14:40:00 2.3 C 92 % 1.14 C
1330 13-01-2022 14:45:00 2.3 C 92 % 1.14 C
1331 13-01-2022 14:50:00 2.3 C 92 % 1.14 C
1332 13-01-2022 14:55:00 2.3 C 92 % 1.14 C
1333 13-01-2022 15:00:00 2.3 C 93 % 1.29 C
1334 13-01-2022 15:05:00 2.3 C 93 % 1.29 C
1335 13-01-2022 15:10:00 2.3 C 93 % 1.29 C
1336 13-01-2022 15:15:00 2.3 C 93 % 1.29 C
1337 13-01-2022 15:20:00 2.3 C 93 % 1.29 C
1338 13-01-2022 15:25:00 2.3 C 93 % 1.29 C
1339 13-01-2022 15:30:00 2.2 C 93 % 1.19 C
1340 13-01-2022 15:35:00 2.2 C 93 % 1.19 C
1341 13-01-2022 15:40:00 2.2 C 93 % 1.19 C
1342 13-01-2022 15:45:00 2.2 C 93 % 1.19 C
1343 13-01-2022 15:50:00 2.1 C 93 % 1.09 C
1344 13-01-2022 15:55:00 2.1 C 93 % 1.09 C
1345 13-01-2022 16:00:00 2 C 93 % 0.99 C
1346 13-01-2022 16:05:00 2 C 93 % 0.99 C
1347 13-01-2022 16:10:00 1.9 C 93 % 0.89 C
1348 13-01-2022 16:15:00 1.9 C 94 % 1.04 C
1349 13-01-2022 16:20:00 1.9 C 94 % 1.04 C
1350 13-01-2022 16:25:00 1.9 C 94 % 1.04 C
Sensor: Nr:Datum:Temp:Feuchte:Taupunkt:
Aussen-T/F 1351 13-01-2022 16:30:00 1.9 C 94 % 1.04 C
1352 13-01-2022 16:35:00 1.8 C 94 % 0.94 C
1353 13-01-2022 16:40:00 1.8 C 94 % 0.94 C
1354 13-01-2022 16:45:00 1.7 C 94 % 0.84 C
1355 13-01-2022 16:50:00 1.6 C 94 % 0.74 C
1356 13-01-2022 16:55:00 1.6 C 94 % 0.74 C
1357 13-01-2022 17:00:00 1.5 C 94 % 0.64 C
1358 13-01-2022 17:05:00 1.5 C 94 % 0.64 C
1359 13-01-2022 17:10:00 1.4 C 94 % 0.54 C
1360 13-01-2022 17:15:00 1.4 C 94 % 0.54 C
1361 13-01-2022 17:20:00 1.3 C 94 % 0.44 C
1362 13-01-2022 17:25:00 1.2 C 94 % 0.34 C
1363 13-01-2022 17:30:00 1 C 94 % 0.15 C
1364 13-01-2022 17:35:00 0.8 C 94 % -0.05 C
1365 13-01-2022 17:40:00 0.7 C 94 % -0.15 C
1366 13-01-2022 17:45:00 0.6 C 94 % -0.25 C
1367 13-01-2022 17:50:00 0.6 C 94 % -0.25 C
1368 13-01-2022 17:55:00 0.6 C 94 % -0.25 C
1369 13-01-2022 18:00:00 0.5 C 94 % -0.35 C
1370 13-01-2022 18:05:00 0.4 C 94 % -0.45 C
1371 13-01-2022 18:10:00 0.4 C 94 % -0.45 C
1372 13-01-2022 18:15:00 0.4 C 94 % -0.45 C
1373 13-01-2022 18:20:00 0.3 C 94 % -0.55 C
1374 13-01-2022 18:25:00 0.2 C 94 % -0.65 C
1375 13-01-2022 18:30:00 0.2 C 94 % -0.65 C
Sensor: Nr:Datum:Temp:Feuchte:Taupunkt:
Aussen-T/F 1376 13-01-2022 18:35:00 0.2 C 94 % -0.65 C
1377 13-01-2022 18:40:00 0.2 C 95 % -0.5 C
1378 13-01-2022 18:45:00 0.2 C 95 % -0.5 C
1379 13-01-2022 18:50:00 0.1 C 95 % -0.6 C
1380 13-01-2022 18:55:00 0.1 C 95 % -0.6 C
1381 13-01-2022 19:00:00 0 C 95 % -0.7 C
1382 13-01-2022 19:05:00 0 C 95 % -0.7 C
1383 13-01-2022 19:10:00 -0.1 C 95 % -0.8 C
1384 13-01-2022 19:15:00 -0.1 C 95 % -0.8 C
1385 13-01-2022 19:20:00 -0.1 C 95 % -0.8 C
1386 13-01-2022 19:25:00 -0.2 C 95 % -0.9 C
1387 13-01-2022 19:30:00 -0.2 C 95 % -0.9 C
1388 13-01-2022 19:35:00 -0.2 C 95 % -0.9 C
1389 13-01-2022 19:40:00 -0.2 C 95 % -0.9 C
1390 13-01-2022 19:45:00 -0.2 C 95 % -0.9 C
1391 13-01-2022 19:50:00 -0.2 C 95 % -0.9 C
1392 13-01-2022 19:55:00 -0.2 C 95 % -0.9 C
1393 13-01-2022 20:00:00 -0.2 C 95 % -0.9 C
1394 13-01-2022 20:05:00 -0.2 C 95 % -0.9 C
1395 13-01-2022 20:10:00 -0.3 C 95 % -1 C
1396 13-01-2022 20:15:00 -0.3 C 95 % -1 C
1397 13-01-2022 20:20:00 -0.3 C 95 % -1 C
1398 13-01-2022 20:25:00 -0.3 C 95 % -1 C
1399 13-01-2022 20:30:00 -0.3 C 95 % -1 C
1400 13-01-2022 20:35:00 -0.3 C 95 % -1 C
Sensor: Nr:Datum:Temp:Feuchte:Taupunkt:
Aussen-T/F 1401 13-01-2022 20:40:00 -0.3 C 95 % -1 C
1402 13-01-2022 20:45:00 -0.3 C 95 % -1 C
1403 13-01-2022 20:50:00 -0.4 C 95 % -1.1 C
1404 13-01-2022 20:55:00 -0.4 C 95 % -1.1 C
1405 13-01-2022 21:00:00 -0.4 C 95 % -1.1 C
1406 13-01-2022 21:05:00 -0.5 C 95 % -1.2 C
1407 13-01-2022 21:10:00 -0.5 C 95 % -1.2 C
1408 13-01-2022 21:15:00 -0.5 C 95 % -1.2 C
1409 13-01-2022 21:20:00 -0.6 C 95 % -1.3 C
1410 13-01-2022 21:25:00 -0.6 C 96 % -1.16 C
1411 13-01-2022 21:30:00 -0.6 C 96 % -1.16 C
1412 13-01-2022 21:35:00 -0.6 C 96 % -1.16 C
1413 13-01-2022 21:40:00 -0.6 C 96 % -1.16 C
1414 13-01-2022 21:45:00 -0.6 C 96 % -1.16 C
1415 13-01-2022 21:50:00 -0.6 C 96 % -1.16 C
1416 13-01-2022 21:55:00 -0.6 C 96 % -1.16 C
1417 13-01-2022 22:00:00 -0.6 C 96 % -1.16 C
1418 13-01-2022 22:05:00 -0.6 C 96 % -1.16 C
1419 13-01-2022 22:10:00 -0.6 C 96 % -1.16 C
1420 13-01-2022 22:15:00 -0.7 C 95 % -1.4 C
1421 13-01-2022 22:20:00 -0.7 C 96 % -1.26 C
1422 13-01-2022 22:25:00 -0.8 C 96 % -1.36 C
1423 13-01-2022 22:30:00 -0.8 C 96 % -1.36 C
1424 13-01-2022 22:35:00 -0.8 C 96 % -1.36 C
1425 13-01-2022 22:40:00 -0.8 C 96 % -1.36 C
Sensor: Nr:Datum:Temp:Feuchte:Taupunkt:
Aussen-T/F 1426 13-01-2022 22:45:00 -0.9 C 96 % -1.46 C
1427 13-01-2022 22:50:00 -0.9 C 96 % -1.46 C
1428 13-01-2022 22:55:00 -0.8 C 96 % -1.36 C
1429 13-01-2022 23:00:00 -0.7 C 96 % -1.26 C
1430 13-01-2022 23:05:00 -0.7 C 96 % -1.26 C
1431 13-01-2022 23:10:00 -0.6 C 96 % -1.16 C
1432 13-01-2022 23:15:00 -0.6 C 96 % -1.16 C
1433 13-01-2022 23:20:00 -0.6 C 96 % -1.16 C
1434 13-01-2022 23:25:00 -0.7 C 96 % -1.26 C
1435 13-01-2022 23:30:00 -0.7 C 96 % -1.26 C
1436 13-01-2022 23:35:00 -0.8 C 96 % -1.36 C
1437 13-01-2022 23:40:00 -0.8 C 96 % -1.36 C
1438 13-01-2022 23:45:00 -0.9 C 96 % -1.46 C
1439 13-01-2022 23:50:00 -0.9 C 96 % -1.46 C
1440 13-01-2022 23:55:00 -0.9 C 96 % -1.46 C
1441 14-01-2022 00:00:00 -0.9 C 96 % -1.46 C
1442 14-01-2022 00:05:00 -0.8 C 96 % -1.36 C
1443 14-01-2022 00:10:00 -0.8 C 96 % -1.36 C
1444 14-01-2022 00:15:00 -0.8 C 96 % -1.36 C
1445 14-01-2022 00:20:00 -0.8 C 96 % -1.36 C
1446 14-01-2022 00:25:00 -0.8 C 96 % -1.36 C
1447 14-01-2022 00:30:00 -0.8 C 96 % -1.36 C
1448 14-01-2022 00:35:00 -0.7 C 96 % -1.26 C
1449 14-01-2022 00:40:00 -0.7 C 96 % -1.26 C
1450 14-01-2022 00:45:00 -0.7 C 96 % -1.26 C
Sensor: Nr:Datum:Temp:Feuchte:Taupunkt:
Aussen-T/F 1451 14-01-2022 00:50:00 -0.7 C 96 % -1.26 C
1452 14-01-2022 00:55:00 -0.7 C 96 % -1.26 C
1453 14-01-2022 01:00:00 -0.7 C 96 % -1.26 C
1454 14-01-2022 01:05:00 -0.7 C 96 % -1.26 C
1455 14-01-2022 01:10:00 -0.7 C 96 % -1.26 C
1456 14-01-2022 01:15:00 -0.7 C 96 % -1.26 C
1457 14-01-2022 01:20:00 -0.7 C 96 % -1.26 C
1458 14-01-2022 01:25:00 -0.7 C 96 % -1.26 C
1459 14-01-2022 01:30:00 -0.7 C 96 % -1.26 C
1460 14-01-2022 01:35:00 -0.6 C 96 % -1.16 C
1461 14-01-2022 01:40:00 -0.6 C 96 % -1.16 C
1462 14-01-2022 01:45:00 -0.6 C 96 % -1.16 C
1463 14-01-2022 01:50:00 -0.6 C 96 % -1.16 C
1464 14-01-2022 01:55:00 -0.6 C 96 % -1.16 C
1465 14-01-2022 02:00:00 -0.6 C 96 % -1.16 C
1466 14-01-2022 02:05:00 -0.6 C 96 % -1.16 C
1467 14-01-2022 02:10:00 -0.6 C 96 % -1.16 C
1468 14-01-2022 02:15:00 -0.5 C 96 % -1.06 C
1469 14-01-2022 02:20:00 -0.4 C 96 % -0.96 C
1470 14-01-2022 02:25:00 -0.4 C 96 % -0.96 C
1471 14-01-2022 02:30:00 -0.4 C 96 % -0.96 C
1472 14-01-2022 02:35:00 -0.4 C 96 % -0.96 C
1473 14-01-2022 02:40:00 -0.4 C 96 % -0.96 C
1474 14-01-2022 02:45:00 -0.4 C 96 % -0.96 C
1475 14-01-2022 02:50:00 -0.4 C 96 % -0.96 C
Sensor: Nr:Datum:Temp:Feuchte:Taupunkt:
Aussen-T/F 1476 14-01-2022 02:55:00 -0.4 C 96 % -0.96 C
1477 14-01-2022 03:00:00 -0.4 C 96 % -0.96 C
1478 14-01-2022 03:05:00 -0.4 C 96 % -0.96 C
1479 14-01-2022 03:10:00 -0.4 C 96 % -0.96 C
1480 14-01-2022 03:15:00 -0.4 C 96 % -0.96 C
1481 14-01-2022 03:20:00 -0.4 C 96 % -0.96 C
1482 14-01-2022 03:25:00 -0.4 C 96 % -0.96 C
1483 14-01-2022 03:30:00 -0.4 C 96 % -0.96 C
1484 14-01-2022 03:35:00 -0.4 C 96 % -0.96 C
1485 14-01-2022 03:40:00 -0.5 C 96 % -1.06 C
1486 14-01-2022 03:45:00 -0.6 C 96 % -1.16 C
1487 14-01-2022 03:50:00 -0.6 C 96 % -1.16 C
1488 14-01-2022 03:55:00 -0.6 C 96 % -1.16 C
1489 14-01-2022 04:00:00 -0.6 C 96 % -1.16 C
1490 14-01-2022 04:05:00 -0.6 C 96 % -1.16 C
1491 14-01-2022 04:10:00 -0.6 C 96 % -1.16 C
1492 14-01-2022 04:15:00 -0.6 C 96 % -1.16 C
1493 14-01-2022 04:20:00 -0.6 C 96 % -1.16 C
1494 14-01-2022 04:25:00 -0.6 C 97 % -1.02 C
1495 14-01-2022 04:30:00 -0.6 C 97 % -1.02 C
1496 14-01-2022 04:35:00 -0.6 C 97 % -1.02 C
1497 14-01-2022 04:40:00 -0.6 C 97 % -1.02 C
1498 14-01-2022 04:45:00 -0.6 C 97 % -1.02 C
1499 14-01-2022 04:50:00 -0.6 C 97 % -1.02 C
1500 14-01-2022 04:55:00 -0.6 C 97 % -1.02 C
Sensor: Nr:Datum:Temp:Feuchte:Taupunkt:
Aussen-T/F 1501 14-01-2022 05:00:00 -0.6 C 97 % -1.02 C
1502 14-01-2022 05:05:00 -0.6 C 97 % -1.02 C
1503 14-01-2022 05:10:00 -0.6 C 97 % -1.02 C
1504 14-01-2022 05:15:00 -0.7 C 97 % -1.12 C
1505 14-01-2022 05:20:00 -0.7 C 97 % -1.12 C
1506 14-01-2022 05:25:00 -0.7 C 96 % -1.26 C
1507 14-01-2022 05:30:00 -0.7 C 97 % -1.12 C
1508 14-01-2022 05:35:00 -0.7 C 96 % -1.26 C
1509 14-01-2022 05:40:00 -0.7 C 96 % -1.26 C
1510 14-01-2022 05:45:00 -0.7 C 96 % -1.26 C
1511 14-01-2022 05:50:00 -0.7 C 96 % -1.26 C
1512 14-01-2022 05:55:00 -0.8 C 96 % -1.36 C
1513 14-01-2022 06:00:00 -0.8 C 96 % -1.36 C
1514 14-01-2022 06:05:00 -0.8 C 96 % -1.36 C
1515 14-01-2022 06:10:00 -0.8 C 96 % -1.36 C
1516 14-01-2022 06:15:00 -0.8 C 96 % -1.36 C
1517 14-01-2022 06:20:00 -0.8 C 97 % -1.22 C
1518 14-01-2022 06:25:00 -0.8 C 97 % -1.22 C
1519 14-01-2022 06:30:00 -0.8 C 97 % -1.22 C
1520 14-01-2022 06:35:00 -0.8 C 97 % -1.22 C
1521 14-01-2022 06:40:00 -0.9 C 97 % -1.32 C
1522 14-01-2022 06:45:00 -0.9 C 97 % -1.32 C
1523 14-01-2022 06:50:00 -0.9 C 97 % -1.32 C
1524 14-01-2022 06:55:00 -0.9 C 97 % -1.32 C
1525 14-01-2022 07:00:00 -0.9 C 97 % -1.32 C
Sensor: Nr:Datum:Temp:Feuchte:Taupunkt:
Aussen-T/F 1526 14-01-2022 07:05:00 -0.9 C 97 % -1.32 C
1527 14-01-2022 07:10:00 -0.9 C 97 % -1.32 C
1528 14-01-2022 07:15:00 -0.9 C 97 % -1.32 C
1529 14-01-2022 07:20:00 -1 C 97 % -1.41 C
1530 14-01-2022 07:25:00 -1 C 97 % -1.41 C
1531 14-01-2022 07:30:00 -1 C 97 % -1.41 C
1532 14-01-2022 07:35:00 -1 C 97 % -1.41 C
1533 14-01-2022 07:40:00 -0.9 C 97 % -1.32 C
1534 14-01-2022 07:45:00 -0.9 C 97 % -1.32 C
1535 14-01-2022 07:50:00 -0.9 C 97 % -1.32 C
1536 14-01-2022 07:55:00 -0.9 C 97 % -1.32 C
1537 14-01-2022 08:00:00 -1 C 97 % -1.41 C
1538 14-01-2022 08:05:00 -1.1 C 97 % -1.51 C
1539 14-01-2022 08:10:00 -1.1 C 97 % -1.51 C
1540 14-01-2022 08:15:00 -1.1 C 97 % -1.51 C
1541 14-01-2022 08:20:00 -1.1 C 97 % -1.51 C
1542 14-01-2022 08:25:00 -1.1 C 97 % -1.51 C
1543 14-01-2022 08:30:00 -1 C 97 % -1.41 C
1544 14-01-2022 08:35:00 -1 C 97 % -1.41 C
1545 14-01-2022 08:40:00 -1.1 C 97 % -1.51 C
1546 14-01-2022 08:45:00 -1.1 C 97 % -1.51 C
1547 14-01-2022 08:50:00 -1.1 C 97 % -1.51 C
1548 14-01-2022 08:55:00 -1.1 C 97 % -1.51 C
1549 14-01-2022 09:00:00 -1 C 97 % -1.41 C
1550 14-01-2022 09:05:00 -1 C 97 % -1.41 C
Sensor: Nr:Datum:Temp:Feuchte:Taupunkt:
Aussen-T/F 1551 14-01-2022 09:10:00 -1.1 C 97 % -1.51 C
1552 14-01-2022 09:15:00 -1.1 C 97 % -1.51 C
1553 14-01-2022 09:20:00 -1.1 C 97 % -1.51 C
1554 14-01-2022 09:25:00 -1.1 C 97 % -1.51 C
1555 14-01-2022 09:30:00 -1.1 C 97 % -1.51 C
1556 14-01-2022 09:35:00 -1.1 C 97 % -1.51 C
1557 14-01-2022 09:40:00 -1 C 97 % -1.41 C
1558 14-01-2022 09:45:00 -1 C 97 % -1.41 C
1559 14-01-2022 09:50:00 -1 C 97 % -1.41 C
1560 14-01-2022 09:55:00 -1 C 97 % -1.41 C
1561 14-01-2022 10:00:00 -0.9 C 97 % -1.32 C
1562 14-01-2022 10:05:00 -0.9 C 97 % -1.32 C
1563 14-01-2022 10:10:00 -0.9 C 97 % -1.32 C
1564 14-01-2022 10:15:00 -0.8 C 97 % -1.22 C
1565 14-01-2022 10:20:00 -0.8 C 97 % -1.22 C
1566 14-01-2022 10:25:00 -0.8 C 97 % -1.22 C
1567 14-01-2022 10:30:00 -0.8 C 97 % -1.22 C
1568 14-01-2022 10:35:00 -0.8 C 97 % -1.22 C
1569 14-01-2022 10:40:00 -0.8 C 97 % -1.22 C
1570 14-01-2022 10:45:00 -0.8 C 97 % -1.22 C
1571 14-01-2022 10:50:00 -0.7 C 97 % -1.12 C
1572 14-01-2022 10:55:00 -0.7 C 97 % -1.12 C
1573 14-01-2022 11:00:00 -0.8 C 97 % -1.22 C
1574 14-01-2022 11:05:00 -0.7 C 97 % -1.12 C
1575 14-01-2022 11:10:00 -0.7 C 97 % -1.12 C
Sensor: Nr:Datum:Temp:Feuchte:Taupunkt:
Aussen-T/F 1576 14-01-2022 11:15:00 -0.7 C 97 % -1.12 C
1577 14-01-2022 11:20:00 -0.6 C 97 % -1.02 C
1578 14-01-2022 11:25:00 -0.5 C 97 % -0.92 C
1579 14-01-2022 11:30:00 -0.4 C 97 % -0.82 C
1580 14-01-2022 11:35:00 -0.4 C 97 % -0.82 C
1581 14-01-2022 11:40:00 -0.3 C 97 % -0.72 C
1582 14-01-2022 11:45:00 -0.2 C 97 % -0.62 C
1583 14-01-2022 11:50:00 -0.1 C 97 % -0.52 C
1584 14-01-2022 11:55:00 -0.1 C 97 % -0.52 C
1585 14-01-2022 12:00:00 0 C 97 % -0.42 C
1586 14-01-2022 12:05:00 0 C 97 % -0.42 C
1587 14-01-2022 12:10:00 0.1 C 97 % -0.32 C
1588 14-01-2022 12:15:00 0.1 C 97 % -0.32 C
1589 14-01-2022 12:20:00 0.1 C 97 % -0.32 C
1590 14-01-2022 12:25:00 0.1 C 97 % -0.32 C
1591 14-01-2022 12:30:00 0.2 C 97 % -0.22 C
1592 14-01-2022 12:35:00 0.2 C 97 % -0.22 C
1593 14-01-2022 12:40:00 0.2 C 97 % -0.22 C
1594 14-01-2022 12:45:00 0.3 C 97 % -0.12 C
1595 14-01-2022 12:50:00 0.3 C 97 % -0.12 C
1596 14-01-2022 12:55:00 0.4 C 97 % -0.02 C
1597 14-01-2022 13:00:00 0.4 C 97 % -0.02 C
1598 14-01-2022 13:05:00 0.4 C 97 % -0.02 C
1599 14-01-2022 13:10:00 0.5 C 97 % 0.08 C
1600 14-01-2022 13:15:00 0.6 C 97 % 0.18 C
Sensor: Nr:Datum:Temp:Feuchte:Taupunkt:
Aussen-T/F 1601 14-01-2022 13:20:00 0.5 C 97 % 0.08 C
1602 14-01-2022 13:25:00 0.5 C 97 % 0.08 C
1603 14-01-2022 13:30:00 0.6 C 97 % 0.18 C
1604 14-01-2022 13:35:00 0.7 C 97 % 0.28 C
1605 14-01-2022 13:40:00 0.6 C 97 % 0.18 C
1606 14-01-2022 13:45:00 0.6 C 97 % 0.18 C
1607 14-01-2022 13:50:00 0.7 C 97 % 0.28 C
1608 14-01-2022 13:55:00 0.7 C 97 % 0.28 C
1609 14-01-2022 14:00:00 0.8 C 97 % 0.38 C
1610 14-01-2022 14:05:00 0.8 C 97 % 0.38 C
1611 14-01-2022 14:10:00 0.8 C 97 % 0.38 C
1612 14-01-2022 14:15:00 0.8 C 97 % 0.38 C
1613 14-01-2022 14:20:00 0.8 C 97 % 0.38 C
1614 14-01-2022 14:25:00 0.8 C 97 % 0.38 C
1615 14-01-2022 14:30:00 0.8 C 97 % 0.38 C
1616 14-01-2022 14:35:00 0.9 C 97 % 0.48 C
1617 14-01-2022 14:40:00 0.9 C 97 % 0.48 C
1618 14-01-2022 14:45:00 0.9 C 97 % 0.48 C
1619 14-01-2022 14:50:00 0.9 C 97 % 0.48 C
1620 14-01-2022 14:55:00 0.9 C 97 % 0.48 C
1621 14-01-2022 15:00:00 0.9 C 97 % 0.48 C
1622 14-01-2022 15:05:00 0.9 C 97 % 0.48 C
1623 14-01-2022 15:10:00 0.9 C 97 % 0.48 C
1624 14-01-2022 15:15:00 0.9 C 97 % 0.48 C
1625 14-01-2022 15:20:00 0.9 C 97 % 0.48 C
Sensor: Nr:Datum:Temp:Feuchte:Taupunkt:
Aussen-T/F 1626 14-01-2022 15:25:00 0.9 C 97 % 0.48 C
1627 14-01-2022 15:30:00 0.9 C 97 % 0.48 C
1628 14-01-2022 15:35:00 0.9 C 97 % 0.48 C
1629 14-01-2022 15:40:00 0.9 C 97 % 0.48 C
1630 14-01-2022 15:45:00 0.9 C 97 % 0.48 C
1631 14-01-2022 15:50:00 0.9 C 97 % 0.48 C
1632 14-01-2022 15:55:00 0.8 C 97 % 0.38 C
1633 14-01-2022 16:00:00 0.8 C 97 % 0.38 C
1634 14-01-2022 16:05:00 0.7 C 97 % 0.28 C
1635 14-01-2022 16:10:00 0.7 C 97 % 0.28 C
1636 14-01-2022 16:15:00 0.7 C 97 % 0.28 C
1637 14-01-2022 16:20:00 0.7 C 97 % 0.28 C
1638 14-01-2022 16:25:00 0.7 C 97 % 0.28 C
1639 14-01-2022 16:30:00 0.7 C 97 % 0.28 C
1640 14-01-2022 16:35:00 0.6 C 97 % 0.18 C
1641 14-01-2022 16:40:00 0.6 C 97 % 0.18 C
1642 14-01-2022 16:45:00 0.6 C 97 % 0.18 C
1643 14-01-2022 16:50:00 0.5 C 97 % 0.08 C
1644 14-01-2022 16:55:00 0.4 C 97 % -0.02 C
1645 14-01-2022 17:00:00 0.4 C 97 % -0.02 C
1646 14-01-2022 17:05:00 0.3 C 97 % -0.12 C
1647 14-01-2022 17:10:00 0.3 C 97 % -0.12 C
1648 14-01-2022 17:15:00 0.2 C 97 % -0.22 C
1649 14-01-2022 17:20:00 0.2 C 97 % -0.22 C
1650 14-01-2022 17:25:00 0.2 C 97 % -0.22 C
Sensor: Nr:Datum:Temp:Feuchte:Taupunkt:
Aussen-T/F 1651 14-01-2022 17:30:00 0.1 C 97 % -0.32 C
1652 14-01-2022 17:35:00 0.1 C 97 % -0.32 C
1653 14-01-2022 17:40:00 0.1 C 97 % -0.32 C
1654 14-01-2022 17:45:00 0.1 C 97 % -0.32 C
1655 14-01-2022 17:50:00 0.1 C 97 % -0.32 C
1656 14-01-2022 17:55:00 0.1 C 97 % -0.32 C
1657 14-01-2022 18:00:00 0.2 C 97 % -0.22 C
1658 14-01-2022 18:05:00 0.2 C 97 % -0.22 C
1659 14-01-2022 18:10:00 0.3 C 97 % -0.12 C
1660 14-01-2022 18:15:00 0.4 C 97 % -0.02 C
1661 14-01-2022 18:20:00 0.5 C 97 % 0.08 C
1662 14-01-2022 18:25:00 0.6 C 97 % 0.18 C
1663 14-01-2022 18:30:00 0.6 C 97 % 0.18 C
1664 14-01-2022 18:35:00 0.6 C 97 % 0.18 C
1665 14-01-2022 18:40:00 0.6 C 97 % 0.18 C
1666 14-01-2022 18:45:00 0.6 C 97 % 0.18 C
1667 14-01-2022 18:50:00 0.6 C 97 % 0.18 C
1668 14-01-2022 18:55:00 0.7 C 97 % 0.28 C
1669 14-01-2022 19:00:00 0.7 C 97 % 0.28 C
1670 14-01-2022 19:05:00 0.7 C 97 % 0.28 C
1671 14-01-2022 19:10:00 0.8 C 97 % 0.38 C
1672 14-01-2022 19:15:00 0.8 C 98 % 0.52 C
1673 14-01-2022 19:20:00 0.9 C 98 % 0.62 C
1674 14-01-2022 19:25:00 1 C 98 % 0.72 C
1675 14-01-2022 19:30:00 1.1 C 97 % 0.68 C
Sensor: Nr:Datum:Temp:Feuchte:Taupunkt:
Aussen-T/F 1676 14-01-2022 19:35:00 1.1 C 97 % 0.68 C
1677 14-01-2022 19:40:00 1.2 C 98 % 0.92 C
1678 14-01-2022 19:45:00 1.2 C 98 % 0.92 C
1679 14-01-2022 19:50:00 1.3 C 98 % 1.02 C
1680 14-01-2022 19:55:00 1.3 C 98 % 1.02 C
1681 14-01-2022 20:00:00 1.3 C 98 % 1.02 C
1682 14-01-2022 20:05:00 1.4 C 97 % 0.98 C
1683 14-01-2022 20:10:00 1.4 C 97 % 0.98 C
1684 14-01-2022 20:15:00 1.5 C 97 % 1.08 C
1685 14-01-2022 20:20:00 1.5 C 98 % 1.22 C
1686 14-01-2022 20:25:00 1.6 C 98 % 1.32 C
1687 14-01-2022 20:30:00 1.6 C 98 % 1.32 C
1688 14-01-2022 20:35:00 1.6 C 98 % 1.32 C
1689 14-01-2022 20:40:00 1.6 C 98 % 1.32 C
1690 14-01-2022 20:45:00 1.6 C 98 % 1.32 C
1691 14-01-2022 20:50:00 1.7 C 98 % 1.42 C
1692 14-01-2022 20:55:00 1.7 C 98 % 1.42 C
1693 14-01-2022 21:00:00 1.7 C 98 % 1.42 C
1694 14-01-2022 21:05:00 1.7 C 97 % 1.28 C
1695 14-01-2022 21:10:00 1.7 C 97 % 1.28 C
1696 14-01-2022 21:15:00 1.7 C 97 % 1.28 C
1697 14-01-2022 21:20:00 1.8 C 98 % 1.52 C
1698 14-01-2022 21:25:00 1.8 C 97 % 1.38 C
1699 14-01-2022 21:30:00 1.8 C 97 % 1.38 C
1700 14-01-2022 21:35:00 1.8 C 97 % 1.38 C
Sensor: Nr:Datum:Temp:Feuchte:Taupunkt:
Aussen-T/F 1701 14-01-2022 21:40:00 1.8 C 97 % 1.38 C
1702 14-01-2022 21:45:00 1.8 C 97 % 1.38 C
1703 14-01-2022 21:50:00 1.8 C 97 % 1.38 C
1704 14-01-2022 21:55:00 1.8 C 97 % 1.38 C
1705 14-01-2022 22:00:00 1.8 C 97 % 1.38 C
1706 14-01-2022 22:05:00 1.8 C 97 % 1.38 C
1707 14-01-2022 22:10:00 1.8 C 98 % 1.52 C
1708 14-01-2022 22:15:00 1.8 C 98 % 1.52 C
1709 14-01-2022 22:20:00 1.9 C 98 % 1.62 C
1710 14-01-2022 22:25:00 1.9 C 98 % 1.62 C
1711 14-01-2022 22:30:00 1.9 C 98 % 1.62 C
1712 14-01-2022 22:35:00 1.9 C 98 % 1.62 C
1713 14-01-2022 22:40:00 2 C 98 % 1.72 C
1714 14-01-2022 22:45:00 2 C 98 % 1.72 C
1715 14-01-2022 22:50:00 2 C 98 % 1.72 C
1716 14-01-2022 22:55:00 2 C 98 % 1.72 C
1717 14-01-2022 23:00:00 2.1 C 98 % 1.82 C
1718 14-01-2022 23:05:00 2.1 C 98 % 1.82 C
1719 14-01-2022 23:10:00 2.1 C 98 % 1.82 C
1720 14-01-2022 23:15:00 2.1 C 98 % 1.82 C
1721 14-01-2022 23:20:00 2.1 C 98 % 1.82 C
1722 14-01-2022 23:25:00 2.1 C 98 % 1.82 C
1723 14-01-2022 23:30:00 2.1 C 98 % 1.82 C
1724 14-01-2022 23:35:00 2.1 C 98 % 1.82 C
1725 14-01-2022 23:40:00 2.1 C 98 % 1.82 C
Sensor: Nr:Datum:Temp:Feuchte:Taupunkt:
Aussen-T/F 1726 14-01-2022 23:45:00 2.1 C 98 % 1.82 C
1727 14-01-2022 23:50:00 2.1 C 97 % 1.67 C
1728 14-01-2022 23:55:00 2.1 C 97 % 1.67 C
1729 15-01-2022 00:00:00 2.1 C 97 % 1.67 C
1730 15-01-2022 00:05:00 2.1 C 97 % 1.67 C
1731 15-01-2022 00:10:00 2.1 C 97 % 1.67 C
1732 15-01-2022 00:15:00 2.1 C 97 % 1.67 C
1733 15-01-2022 00:20:00 2.1 C 97 % 1.67 C
1734 15-01-2022 00:25:00 2.1 C 97 % 1.67 C
1735 15-01-2022 00:30:00 2.1 C 97 % 1.67 C
1736 15-01-2022 00:35:00 2 C 97 % 1.58 C
1737 15-01-2022 00:40:00 2 C 97 % 1.58 C
1738 15-01-2022 00:45:00 2 C 97 % 1.58 C
1739 15-01-2022 00:50:00 2 C 97 % 1.58 C
1740 15-01-2022 00:55:00 2 C 97 % 1.58 C
1741 15-01-2022 01:00:00 2 C 97 % 1.58 C
1742 15-01-2022 01:05:00 1.9 C 97 % 1.48 C
1743 15-01-2022 01:10:00 1.9 C 97 % 1.48 C
1744 15-01-2022 01:15:00 1.9 C 97 % 1.48 C
1745 15-01-2022 01:20:00 1.9 C 97 % 1.48 C
1746 15-01-2022 01:25:00 1.9 C 97 % 1.48 C
1747 15-01-2022 01:30:00 1.9 C 97 % 1.48 C
1748 15-01-2022 01:35:00 1.8 C 98 % 1.52 C
1749 15-01-2022 01:40:00 1.8 C 98 % 1.52 C
1750 15-01-2022 01:45:00 1.8 C 98 % 1.52 C
Sensor: Nr:Datum:Temp:Feuchte:Taupunkt:
Aussen-T/F 1751 15-01-2022 01:50:00 1.8 C 98 % 1.52 C
1752 15-01-2022 01:55:00 1.8 C 98 % 1.52 C
1753 15-01-2022 02:00:00 1.8 C 98 % 1.52 C
1754 15-01-2022 02:05:00 1.7 C 97 % 1.28 C
1755 15-01-2022 02:10:00 1.7 C 97 % 1.28 C
1756 15-01-2022 02:15:00 1.7 C 97 % 1.28 C
1757 15-01-2022 02:20:00 1.6 C 97 % 1.18 C
1758 15-01-2022 02:25:00 1.6 C 97 % 1.18 C
1759 15-01-2022 02:30:00 1.6 C 97 % 1.18 C
1760 15-01-2022 02:35:00 1.6 C 97 % 1.18 C
1761 15-01-2022 02:40:00 1.6 C 97 % 1.18 C
1762 15-01-2022 02:45:00 1.6 C 97 % 1.18 C
1763 15-01-2022 02:50:00 1.6 C 97 % 1.18 C
1764 15-01-2022 02:55:00 1.6 C 97 % 1.18 C
1765 15-01-2022 03:00:00 1.6 C 97 % 1.18 C
1766 15-01-2022 03:05:00 1.6 C 97 % 1.18 C
1767 15-01-2022 03:10:00 1.6 C 97 % 1.18 C
1768 15-01-2022 03:15:00 1.6 C 97 % 1.18 C
1769 15-01-2022 03:20:00 1.6 C 97 % 1.18 C
1770 15-01-2022 03:25:00 1.6 C 98 % 1.32 C
1771 15-01-2022 03:30:00 1.6 C 97 % 1.18 C
1772 15-01-2022 03:35:00 1.5 C 97 % 1.08 C
1773 15-01-2022 03:40:00 1.4 C 97 % 0.98 C
1774 15-01-2022 03:45:00 1.4 C 97 % 0.98 C
1775 15-01-2022 03:50:00 1.3 C 97 % 0.88 C
Sensor: Nr:Datum:Temp:Feuchte:Taupunkt:
Aussen-T/F 1776 15-01-2022 03:55:00 1.3 C 97 % 0.88 C
1777 15-01-2022 04:00:00 1.3 C 97 % 0.88 C
1778 15-01-2022 04:05:00 1.2 C 97 % 0.78 C
1779 15-01-2022 04:10:00 1.2 C 97 % 0.78 C
1780 15-01-2022 04:15:00 1.1 C 97 % 0.68 C
1781 15-01-2022 04:20:00 1.1 C 97 % 0.68 C
1782 15-01-2022 04:25:00 1.1 C 97 % 0.68 C
1783 15-01-2022 04:30:00 1.1 C 97 % 0.68 C
1784 15-01-2022 04:35:00 1 C 97 % 0.58 C
1785 15-01-2022 04:40:00 1 C 97 % 0.58 C
1786 15-01-2022 04:45:00 0.9 C 97 % 0.48 C
1787 15-01-2022 04:50:00 0.9 C 97 % 0.48 C
1788 15-01-2022 04:55:00 0.9 C 97 % 0.48 C
1789 15-01-2022 05:00:00 0.9 C 97 % 0.48 C
1790 15-01-2022 05:05:00 0.9 C 97 % 0.48 C
1791 15-01-2022 05:10:00 0.9 C 97 % 0.48 C
1792 15-01-2022 05:15:00 0.9 C 97 % 0.48 C
1793 15-01-2022 05:20:00 0.9 C 97 % 0.48 C
1794 15-01-2022 05:25:00 0.9 C 97 % 0.48 C
1795 15-01-2022 05:30:00 0.9 C 97 % 0.48 C
1796 15-01-2022 05:35:00 0.9 C 97 % 0.48 C
1797 15-01-2022 05:40:00 0.9 C 97 % 0.48 C
1798 15-01-2022 05:45:00 0.9 C 97 % 0.48 C
1799 15-01-2022 05:50:00 0.9 C 97 % 0.48 C
1800 15-01-2022 05:55:00 0.9 C 97 % 0.48 C
Sensor: Nr:Datum:Temp:Feuchte:Taupunkt:
Aussen-T/F 1801 15-01-2022 06:00:00 0.9 C 97 % 0.48 C
1802 15-01-2022 06:05:00 0.9 C 97 % 0.48 C
1803 15-01-2022 06:10:00 1 C 97 % 0.58 C
1804 15-01-2022 06:15:00 1 C 97 % 0.58 C
1805 15-01-2022 06:20:00 1 C 97 % 0.58 C
1806 15-01-2022 06:25:00 1 C 97 % 0.58 C
1807 15-01-2022 06:30:00 1 C 97 % 0.58 C
1808 15-01-2022 06:35:00 1 C 97 % 0.58 C
1809 15-01-2022 06:40:00 1 C 97 % 0.58 C
1810 15-01-2022 06:45:00 1 C 97 % 0.58 C
1811 15-01-2022 06:50:00 1 C 97 % 0.58 C
1812 15-01-2022 06:55:00 1 C 97 % 0.58 C
1813 15-01-2022 07:00:00 1 C 97 % 0.58 C
1814 15-01-2022 07:05:00 1 C 97 % 0.58 C
1815 15-01-2022 07:10:00 1 C 97 % 0.58 C
1816 15-01-2022 07:15:00 0.9 C 97 % 0.48 C
1817 15-01-2022 07:20:00 0.9 C 97 % 0.48 C
1818 15-01-2022 07:25:00 0.9 C 97 % 0.48 C
1819 15-01-2022 07:30:00 0.9 C 97 % 0.48 C
1820 15-01-2022 07:35:00 0.9 C 97 % 0.48 C
1821 15-01-2022 07:40:00 0.9 C 97 % 0.48 C
1822 15-01-2022 07:45:00 0.9 C 97 % 0.48 C
1823 15-01-2022 07:50:00 0.9 C 97 % 0.48 C
1824 15-01-2022 07:55:00 0.9 C 97 % 0.48 C
1825 15-01-2022 08:00:00 0.9 C 97 % 0.48 C
Sensor: Nr:Datum:Temp:Feuchte:Taupunkt:
Aussen-T/F 1826 15-01-2022 08:05:00 0.9 C 97 % 0.48 C
1827 15-01-2022 08:10:00 0.9 C 97 % 0.48 C
1828 15-01-2022 08:15:00 0.9 C 97 % 0.48 C
1829 15-01-2022 08:20:00 0.9 C 97 % 0.48 C
1830 15-01-2022 08:25:00 1 C 97 % 0.58 C
1831 15-01-2022 08:30:00 1 C 97 % 0.58 C
1832 15-01-2022 08:35:00 1 C 97 % 0.58 C
1833 15-01-2022 08:40:00 1 C 97 % 0.58 C
1834 15-01-2022 08:45:00 1.1 C 97 % 0.68 C
1835 15-01-2022 08:50:00 1.1 C 97 % 0.68 C
1836 15-01-2022 08:55:00 1.1 C 97 % 0.68 C
1837 15-01-2022 09:00:00 1.1 C 97 % 0.68 C
1838 15-01-2022 09:05:00 1.1 C 97 % 0.68 C
1839 15-01-2022 09:10:00 1.2 C 97 % 0.78 C
1840 15-01-2022 09:15:00 1.2 C 97 % 0.78 C
1841 15-01-2022 09:20:00 1.2 C 97 % 0.78 C
1842 15-01-2022 09:25:00 1.2 C 97 % 0.78 C
1843 15-01-2022 09:30:00 1.3 C 97 % 0.88 C
1844 15-01-2022 09:35:00 1.3 C 97 % 0.88 C
1845 15-01-2022 09:40:00 1.3 C 97 % 0.88 C
1846 15-01-2022 09:45:00 1.3 C 97 % 0.88 C
1847 15-01-2022 09:50:00 1.4 C 97 % 0.98 C
1848 15-01-2022 09:55:00 1.4 C 97 % 0.98 C
1849 15-01-2022 10:00:00 1.4 C 97 % 0.98 C
1850 15-01-2022 10:05:00 1.5 C 97 % 1.08 C
Sensor: Nr:Datum:Temp:Feuchte:Taupunkt:
Aussen-T/F 1851 15-01-2022 10:10:00 1.6 C 97 % 1.18 C
1852 15-01-2022 10:15:00 1.6 C 97 % 1.18 C
1853 15-01-2022 10:20:00 1.7 C 97 % 1.28 C
1854 15-01-2022 10:25:00 1.7 C 96 % 1.13 C
1855 15-01-2022 10:30:00 1.7 C 96 % 1.13 C
1856 15-01-2022 10:35:00 1.8 C 96 % 1.23 C
1857 15-01-2022 10:40:00 1.8 C 97 % 1.38 C
1858 15-01-2022 10:45:00 1.8 C 96 % 1.23 C
1859 15-01-2022 10:50:00 1.9 C 96 % 1.33 C
1860 15-01-2022 10:55:00 1.9 C 96 % 1.33 C
1861 15-01-2022 11:00:00 1.9 C 96 % 1.33 C
1862 15-01-2022 11:05:00 2 C 96 % 1.43 C
1863 15-01-2022 11:10:00 2.1 C 96 % 1.53 C
1864 15-01-2022 11:15:00 2.1 C 96 % 1.53 C
1865 15-01-2022 11:20:00 2.1 C 96 % 1.53 C
1866 15-01-2022 11:25:00 2.2 C 96 % 1.63 C
1867 15-01-2022 11:30:00 2.2 C 96 % 1.63 C
1868 15-01-2022 11:35:00 2.3 C 96 % 1.73 C
1869 15-01-2022 11:40:00 2.3 C 96 % 1.73 C
1870 15-01-2022 11:45:00 2.3 C 95 % 1.58 C
1871 15-01-2022 11:50:00 2.4 C 95 % 1.68 C
1872 15-01-2022 11:55:00 2.4 C 95 % 1.68 C
1873 15-01-2022 12:00:00 2.4 C 95 % 1.68 C
1874 15-01-2022 12:05:00 2.4 C 95 % 1.68 C
1875 15-01-2022 12:10:00 2.5 C 95 % 1.78 C
Sensor: Nr:Datum:Temp:Feuchte:Taupunkt:
Aussen-T/F 1876 15-01-2022 12:15:00 2.5 C 95 % 1.78 C
1877 15-01-2022 12:20:00 2.6 C 95 % 1.88 C
1878 15-01-2022 12:25:00 2.6 C 95 % 1.88 C
1879 15-01-2022 12:30:00 2.7 C 95 % 1.98 C
1880 15-01-2022 12:35:00 2.7 C 95 % 1.98 C
1881 15-01-2022 12:40:00 2.7 C 95 % 1.98 C
1882 15-01-2022 12:45:00 2.7 C 95 % 1.98 C
1883 15-01-2022 12:50:00 2.8 C 95 % 2.08 C
1884 15-01-2022 12:55:00 2.8 C 95 % 2.08 C
1885 15-01-2022 13:00:00 2.8 C 94 % 1.93 C
1886 15-01-2022 13:05:00 2.8 C 95 % 2.08 C
1887 15-01-2022 13:10:00 2.8 C 94 % 1.93 C
1888 15-01-2022 13:15:00 2.9 C 95 % 2.18 C
1889 15-01-2022 13:20:00 3 C 95 % 2.28 C
1890 15-01-2022 13:25:00 3 C 94 % 2.13 C
1891 15-01-2022 13:30:00 3 C 94 % 2.13 C
1892 15-01-2022 13:35:00 2.9 C 94 % 2.03 C
1893 15-01-2022 13:40:00 2.9 C 94 % 2.03 C
1894 15-01-2022 13:45:00 2.9 C 94 % 2.03 C
1895 15-01-2022 13:50:00 2.9 C 94 % 2.03 C
1896 15-01-2022 13:55:00 2.8 C 94 % 1.93 C
1897 15-01-2022 14:00:00 2.8 C 94 % 1.93 C
1898 15-01-2022 14:05:00 2.8 C 94 % 1.93 C
1899 15-01-2022 14:10:00 2.8 C 94 % 1.93 C
1900 15-01-2022 14:15:00 2.8 C 94 % 1.93 C
Sensor: Nr:Datum:Temp:Feuchte:Taupunkt:
Aussen-T/F 1901 15-01-2022 14:20:00 2.8 C 94 % 1.93 C
1902 15-01-2022 14:25:00 2.8 C 94 % 1.93 C
1903 15-01-2022 14:30:00 2.8 C 94 % 1.93 C
1904 15-01-2022 14:35:00 2.8 C 94 % 1.93 C
1905 15-01-2022 14:40:00 2.8 C 94 % 1.93 C
1906 15-01-2022 14:45:00 2.8 C 94 % 1.93 C
1907 15-01-2022 14:50:00 2.8 C 94 % 1.93 C
1908 15-01-2022 14:55:00 2.8 C 94 % 1.93 C
1909 15-01-2022 15:00:00 2.8 C 94 % 1.93 C
1910 15-01-2022 15:05:00 2.8 C 94 % 1.93 C
1911 15-01-2022 15:10:00 2.8 C 94 % 1.93 C
1912 15-01-2022 15:15:00 2.8 C 94 % 1.93 C
1913 15-01-2022 15:20:00 2.8 C 94 % 1.93 C
1914 15-01-2022 15:25:00 2.8 C 94 % 1.93 C
1915 15-01-2022 15:30:00 2.8 C 94 % 1.93 C
1916 15-01-2022 15:35:00 2.8 C 94 % 1.93 C
1917 15-01-2022 15:40:00 2.8 C 94 % 1.93 C
1918 15-01-2022 15:45:00 2.8 C 94 % 1.93 C
1919 15-01-2022 15:50:00 2.8 C 94 % 1.93 C
1920 15-01-2022 15:55:00 2.8 C 94 % 1.93 C
1921 15-01-2022 16:00:00 2.8 C 94 % 1.93 C
1922 15-01-2022 16:05:00 2.8 C 94 % 1.93 C
1923 15-01-2022 16:10:00 2.8 C 94 % 1.93 C
1924 15-01-2022 16:15:00 2.8 C 94 % 1.93 C
1925 15-01-2022 16:20:00 2.8 C 94 % 1.93 C
Sensor: Nr:Datum:Temp:Feuchte:Taupunkt:
Aussen-T/F 1926 15-01-2022 16:25:00 2.8 C 94 % 1.93 C
1927 15-01-2022 16:30:00 2.8 C 94 % 1.93 C
1928 15-01-2022 16:35:00 2.8 C 94 % 1.93 C
1929 15-01-2022 16:40:00 2.8 C 94 % 1.93 C
1930 15-01-2022 16:45:00 2.8 C 94 % 1.93 C
1931 15-01-2022 16:50:00 2.8 C 94 % 1.93 C
1932 15-01-2022 16:55:00 2.8 C 94 % 1.93 C
1933 15-01-2022 17:00:00 2.7 C 95 % 1.98 C
1934 15-01-2022 17:05:00 2.7 C 94 % 1.83 C
1935 15-01-2022 17:10:00 2.7 C 94 % 1.83 C
1936 15-01-2022 17:15:00 2.7 C 94 % 1.83 C
1937 15-01-2022 17:20:00 2.7 C 94 % 1.83 C
1938 15-01-2022 17:25:00 2.7 C 94 % 1.83 C
1939 15-01-2022 17:30:00 2.7 C 94 % 1.83 C
1940 15-01-2022 17:35:00 2.7 C 94 % 1.83 C
1941 15-01-2022 17:40:00 2.7 C 94 % 1.83 C
1942 15-01-2022 17:45:00 2.7 C 95 % 1.98 C
1943 15-01-2022 17:50:00 2.7 C 95 % 1.98 C
1944 15-01-2022 17:55:00 2.7 C 95 % 1.98 C
1945 15-01-2022 18:00:00 2.7 C 95 % 1.98 C
1946 15-01-2022 18:05:00 2.7 C 95 % 1.98 C
1947 15-01-2022 18:10:00 2.7 C 95 % 1.98 C
1948 15-01-2022 18:15:00 2.7 C 95 % 1.98 C
1949 15-01-2022 18:20:00 2.7 C 95 % 1.98 C
1950 15-01-2022 18:25:00 2.7 C 95 % 1.98 C
Sensor: Nr:Datum:Temp:Feuchte:Taupunkt:
Aussen-T/F 1951 15-01-2022 18:30:00 2.7 C 95 % 1.98 C
1952 15-01-2022 18:35:00 2.7 C 95 % 1.98 C
1953 15-01-2022 18:40:00 2.7 C 95 % 1.98 C
1954 15-01-2022 18:45:00 2.7 C 95 % 1.98 C
1955 15-01-2022 18:50:00 2.8 C 95 % 2.08 C
1956 15-01-2022 18:55:00 2.8 C 95 % 2.08 C
1957 15-01-2022 19:00:00 2.7 C 95 % 1.98 C
1958 15-01-2022 19:05:00 2.7 C 95 % 1.98 C
1959 15-01-2022 19:10:00 2.7 C 95 % 1.98 C
1960 15-01-2022 19:15:00 2.7 C 95 % 1.98 C
1961 15-01-2022 19:20:00 2.7 C 95 % 1.98 C
1962 15-01-2022 19:25:00 2.6 C 95 % 1.88 C
1963 15-01-2022 19:30:00 2.6 C 95 % 1.88 C
1964 15-01-2022 19:35:00 2.6 C 95 % 1.88 C
1965 15-01-2022 19:40:00 2.6 C 95 % 1.88 C
1966 15-01-2022 19:45:00 2.6 C 95 % 1.88 C
1967 15-01-2022 19:50:00 2.6 C 95 % 1.88 C
1968 15-01-2022 19:55:00 2.6 C 95 % 1.88 C
1969 15-01-2022 20:00:00 2.6 C 95 % 1.88 C
1970 15-01-2022 20:05:00 2.6 C 95 % 1.88 C
1971 15-01-2022 20:10:00 2.6 C 95 % 1.88 C
1972 15-01-2022 20:15:00 2.6 C 95 % 1.88 C
1973 15-01-2022 20:20:00 2.6 C 95 % 1.88 C
1974 15-01-2022 20:25:00 2.6 C 95 % 1.88 C
1975 15-01-2022 20:30:00 2.6 C 95 % 1.88 C
Sensor: Nr:Datum:Temp:Feuchte:Taupunkt:
Aussen-T/F 1976 15-01-2022 20:35:00 2.6 C 95 % 1.88 C
1977 15-01-2022 20:40:00 2.6 C 95 % 1.88 C
1978 15-01-2022 20:45:00 2.6 C 95 % 1.88 C
1979 15-01-2022 20:50:00 2.6 C 95 % 1.88 C
1980 15-01-2022 20:55:00 2.6 C 95 % 1.88 C
1981 15-01-2022 21:00:00 2.6 C 95 % 1.88 C
1982 15-01-2022 21:05:00 2.6 C 95 % 1.88 C
1983 15-01-2022 21:10:00 2.6 C 95 % 1.88 C
1984 15-01-2022 21:15:00 2.6 C 95 % 1.88 C
1985 15-01-2022 21:20:00 2.5 C 95 % 1.78 C
1986 15-01-2022 21:25:00 2.5 C 95 % 1.78 C
1987 15-01-2022 21:30:00 2.5 C 95 % 1.78 C
1988 15-01-2022 21:35:00 2.5 C 95 % 1.78 C
1989 15-01-2022 21:40:00 2.5 C 95 % 1.78 C
1990 15-01-2022 21:45:00 2.5 C 95 % 1.78 C
1991 15-01-2022 21:50:00 2.5 C 95 % 1.78 C
1992 15-01-2022 21:55:00 2.5 C 95 % 1.78 C
1993 15-01-2022 22:00:00 2.4 C 95 % 1.68 C
1994 15-01-2022 22:05:00 2.4 C 95 % 1.68 C
1995 15-01-2022 22:10:00 2.4 C 95 % 1.68 C
1996 15-01-2022 22:15:00 2.4 C 95 % 1.68 C
1997 15-01-2022 22:20:00 2.4 C 95 % 1.68 C
1998 15-01-2022 22:25:00 2.4 C 95 % 1.68 C
1999 15-01-2022 22:30:00 2.4 C 95 % 1.68 C
2000 15-01-2022 22:35:00 2.4 C 95 % 1.68 C
Sensor: Nr:Datum:Temp:Feuchte:Taupunkt:
Aussen-T/F 2001 15-01-2022 22:40:00 2.4 C 95 % 1.68 C
2002 15-01-2022 22:45:00 2.4 C 95 % 1.68 C
2003 15-01-2022 22:50:00 2.5 C 95 % 1.78 C
2004 15-01-2022 22:55:00 2.5 C 95 % 1.78 C
2005 15-01-2022 23:00:00 2.5 C 95 % 1.78 C
2006 15-01-2022 23:05:00 2.5 C 95 % 1.78 C
2007 15-01-2022 23:10:00 2.6 C 95 % 1.88 C
2008 15-01-2022 23:15:00 2.6 C 95 % 1.88 C
2009 15-01-2022 23:20:00 2.6 C 95 % 1.88 C
2010 15-01-2022 23:25:00 2.6 C 95 % 1.88 C
2011 15-01-2022 23:30:00 2.6 C 95 % 1.88 C
2012 15-01-2022 23:35:00 2.6 C 95 % 1.88 C
2013 15-01-2022 23:40:00 2.6 C 95 % 1.88 C
2014 15-01-2022 23:45:00 2.5 C 95 % 1.78 C
2015 15-01-2022 23:50:00 2.5 C 95 % 1.78 C
2016 15-01-2022 23:55:00 2.5 C 95 % 1.78 C

Legende:
   Min
   Max


Maximal/Minimal-Werte vom 09.01.2022 - 15.01.2022

Sensor Min Max Avg
Temp
(Aussen-T/F)
-2.2 °C
12-01-2022  03:15:00
5.9 °C
09-01-2022  13:10:00
1.45 °C
Feuchte
(Aussen-T/F)
84 %
09-01-2022  15:40:00
98 %
14-01-2022  19:15:00
94.8 %
Taupunkt
(Aussen-T/F)
-2.75 C
12-01-2022  03:15:00
4.03 C
09-01-2022  12:50:00
0.7 C

Die Daten stammen von einer Davis Vantage Pro 2 Wetter-Station und werden unter Linux mit der Software wview2wettercgi und aufbereitet. Alle Angaben erfolgen ohne Gewähr für ihre Vollständigkeit oder Richtigkeit.
Kontakt: Rainer Krienke krienke@uni-koblenz.de . Meine Webseiten an der Uni Koblenz oder privat.
Version: $Revision: 0.78 $